Wetterdaten: Montag, 25.09.2023
Datum Zeit Temp. Aussen Temp. o. S. Temp +5cm Feuchte Auss Luftdruck Regen Sonnenschein Regendauer Solar Windben Empfang
25.09.2023 00:00 13,9 C 12,8 C 9,4 C 82 % 1023,3 hPa 0,0 l/m 0 min 0 min 0 W/m 0,0 km/h (0 Bft) 97,14 %
25.09.2023 00:02 13,8 C 12,8 C 9,4 C 82 % 1023,2 hPa 0,0 l/m 0 min 0 min 0 W/m 3,2 km/h (1 Bft) 100,00 %
25.09.2023 00:08 13,8 C 12,8 C 9,4 C 82 % 1023,2 hPa 0,0 l/m 0 min 0 min 0 W/m 12,9 km/h (3 Bft) 100,00 %
25.09.2023 00:09 13,8 C 12,8 C 9,4 C 82 % 1023,2 hPa 0,0 l/m 0 min 0 min 0 W/m 3,2 km/h (1 Bft) 100,00 %
25.09.2023 00:10 13,7 C 12,8 C 9,4 C 83 % 1023,1 hPa 0,0 l/m 0 min 0 min 0 W/m 3,2 km/h (1 Bft) 100,00 %
25.09.2023 00:12 13,7 C 12,8 C 9,4 C 83 % 1023,1 hPa 0,0 l/m 0 min 0 min 0 W/m 3,2 km/h (1 Bft) 100,00 %
25.09.2023 00:16 13,7 C 12,8 C 9,4 C 83 % 1023,1 hPa 0,0 l/m 0 min 0 min 0 W/m 6,4 km/h (2 Bft) 98,80 %
25.09.2023 00:18 13,6 C 12,8 C 9,4 C 83 % 1023,1 hPa 0,0 l/m 0 min 0 min 0 W/m 6,4 km/h (2 Bft) 100,00 %
25.09.2023 00:20 13,6 C 12,8 C 9,4 C 83 % 1023,1 hPa 0,0 l/m 0 min 0 min 0 W/m 6,4 km/h (2 Bft) 100,00 %
25.09.2023 00:22 13,6 C 12,8 C 9,4 C 83 % 1023,2 hPa 0,0 l/m 0 min 0 min 0 W/m 6,4 km/h (2 Bft) 100,00 %
25.09.2023 00:24 13,6 C 12,8 C 9,4 C 83 % 1023,1 hPa 0,0 l/m 0 min 0 min 0 W/m 6,4 km/h (2 Bft) 100,00 %
25.09.2023 00:26 13,6 C 12,8 C 9,4 C 83 % 1023,1 hPa 0,0 l/m 0 min 0 min 0 W/m 6,4 km/h (2 Bft) 95,74 %
25.09.2023 00:28 13,5 C 12,8 C 9,4 C 83 % 1023,1 hPa 0,0 l/m 0 min 0 min 0 W/m 6,4 km/h (2 Bft) 97,96 %
25.09.2023 00:30 13,5 C 12,8 C 9,4 C 83 % 1023,1 hPa 0,0 l/m 0 min 0 min 0 W/m 3,2 km/h (1 Bft) 100,00 %
25.09.2023 00:32 13,5 C 12,8 C 9,4 C 83 % 1023,2 hPa 0,0 l/m 0 min 0 min 0 W/m 6,4 km/h (2 Bft) 100,00 %
25.09.2023 00:34 13,4 C 12,8 C 9,4 C 83 % 1023,2 hPa 0,0 l/m 0 min 0 min 0 W/m 6,4 km/h (2 Bft) 97,87 %
25.09.2023 00:36 13,4 C 12,2 C 9,4 C 83 % 1023,2 hPa 0,0 l/m 0 min 0 min 0 W/m 6,4 km/h (2 Bft) 97,87 %
25.09.2023 00:38 13,4 C 12,2 C 9,4 C 84 % 1023,2 hPa 0,0 l/m 0 min 0 min 0 W/m 3,2 km/h (1 Bft) 97,87 %
25.09.2023 00:40 13,4 C 12,2 C 9,4 C 84 % 1023,2 hPa 0,0 l/m 0 min 0 min 0 W/m 6,4 km/h (2 Bft) 100,00 %
25.09.2023 00:42 13,4 C 12,2 C 9,4 C 84 % 1023,1 hPa 0,0 l/m 0 min 0 min 0 W/m 3,2 km/h (1 Bft) 100,00 %
25.09.2023 00:44 13,4 C 12,2 C 8,9 C 84 % 1023,1 hPa 0,0 l/m 0 min 0 min 0 W/m 6,4 km/h (2 Bft) 100,00 %
25.09.2023 00:46 13,3 C 12,2 C 8,9 C 84 % 1023,1 hPa 0,0 l/m 0 min 0 min 0 W/m 6,4 km/h (2 Bft) 97,87 %
25.09.2023 00:48 13,3 C 12,2 C 8,9 C 84 % 1023,1 hPa 0,0 l/m 0 min 0 min 0 W/m 6,4 km/h (2 Bft) 97,87 %
25.09.2023 00:50 13,3 C 12,2 C 8,9 C 84 % 1023,1 hPa 0,0 l/m 0 min 0 min 0 W/m 6,4 km/h (2 Bft) 95,74 %
25.09.2023 00:52 13,3 C 12,2 C 8,9 C 84 % 1023,1 hPa 0,0 l/m 0 min 0 min 0 W/m 12,9 km/h (3 Bft) 93,62 %
25.09.2023 00:54 13,3 C 12,2 C 8,9 C 84 % 1023,1 hPa 0,0 l/m 0 min 0 min 0 W/m 6,4 km/h (2 Bft) 97,87 %
25.09.2023 00:56 13,3 C 12,2 C 8,9 C 84 % 1023,0 hPa 0,0 l/m 0 min 0 min 0 W/m 12,9 km/h (3 Bft) 95,83 %
25.09.2023 00:58 13,3 C 12,2 C 8,9 C 84 % 1023,0 hPa 0,0 l/m 0 min 0 min 0 W/m 6,4 km/h (2 Bft) 94,59 %
25.09.2023 01:00 13,3 C 12,2 C 8,9 C 84 % 1023,0 hPa 0,0 l/m 0 min 0 min 0 W/m 12,9 km/h (3 Bft) 94,55 %
25.09.2023 01:02 13,3 C 12,2 C 8,9 C 84 % 1023,0 hPa 0,0 l/m 0 min 0 min 0 W/m 6,4 km/h (2 Bft) 95,65 %
25.09.2023 01:04 13,3 C 12,2 C 8,9 C 84 % 1023,0 hPa 0,0 l/m 0 min 0 min 0 W/m 6,4 km/h (2 Bft) 95,35 %
25.09.2023 01:08 13,2 C 12,2 C 8,9 C 84 % 1022,9 hPa 0,0 l/m 0 min 0 min 0 W/m 12,9 km/h (3 Bft) 92,45 %
25.09.2023 01:09 13,2 C 12,2 C 8,9 C 84 % 1022,8 hPa 0,0 l/m 0 min 0 min 0 W/m 3,2 km/h (1 Bft) 100,00 %
25.09.2023 01:10 13,2 C 12,2 C 8,9 C 84 % 1022,8 hPa 0,0 l/m 0 min 0 min 0 W/m 12,9 km/h (3 Bft) 97,37 %
25.09.2023 01:14 13,2 C 12,2 C 8,9 C 84 % 1022,9 hPa 0,0 l/m 0 min 0 min 0 W/m 12,9 km/h (3 Bft) 91,67 %
25.09.2023 01:16 13,1 C 12,2 C 8,9 C 85 % 1022,9 hPa 0,0 l/m 0 min 0 min 0 W/m 6,4 km/h (2 Bft) 98,28 %
25.09.2023 01:18 13,1 C 12,2 C 8,9 C 85 % 1022,9 hPa 0,0 l/m 0 min 0 min 0 W/m 6,4 km/h (2 Bft) 94,59 %
25.09.2023 01:20 13,1 C 12,2 C 8,9 C 85 % 1022,9 hPa 0,0 l/m 0 min 0 min 0 W/m 3,2 km/h (1 Bft) 97,87 %
25.09.2023 01:22 13,1 C 12,2 C 8,9 C 85 % 1022,9 hPa 0,0 l/m 0 min 0 min 0 W/m 6,4 km/h (2 Bft) 97,87 %
25.09.2023 01:24 13,1 C 12,2 C 8,9 C 85 % 1022,9 hPa 0,0 l/m 0 min 0 min 0 W/m 12,9 km/h (3 Bft) 97,87 %
25.09.2023 01:26 13,1 C 12,2 C 8,9 C 85 % 1022,9 hPa 0,0 l/m 0 min 0 min 0 W/m 6,4 km/h (2 Bft) 97,87 %
25.09.2023 01:28 13,0 C 12,2 C 8,9 C 85 % 1022,9 hPa 0,0 l/m 0 min 0 min 0 W/m 6,4 km/h (2 Bft) 95,74 %
25.09.2023 01:30 13,0 C 12,2 C 8,9 C 85 % 1022,9 hPa 0,0 l/m 0 min 0 min 0 W/m 6,4 km/h (2 Bft) 95,74 %
25.09.2023 01:32 13,0 C 12,2 C 8,9 C 85 % 1022,9 hPa 0,0 l/m 0 min 0 min 0 W/m 6,4 km/h (2 Bft) 97,87 %
25.09.2023 01:34 12,9 C 12,2 C 8,9 C 85 % 1022,9 hPa 0,0 l/m 0 min 0 min 0 W/m 6,4 km/h (2 Bft) 95,74 %
25.09.2023 01:36 12,9 C 12,2 C 8,9 C 85 % 1023,0 hPa 0,0 l/m 0 min 0 min 0 W/m 6,4 km/h (2 Bft) 93,48 %
25.09.2023 01:38 12,9 C 12,2 C 8,9 C 86 % 1022,9 hPa 0,0 l/m 0 min 0 min 0 W/m 12,9 km/h (3 Bft) 95,74 %
25.09.2023 01:40 12,9 C 12,2 C 8,9 C 86 % 1022,9 hPa 0,0 l/m 0 min 0 min 0 W/m 12,9 km/h (3 Bft) 95,74 %
25.09.2023 01:42 12,9 C 12,2 C 8,9 C 86 % 1022,9 hPa 0,0 l/m 0 min 0 min 0 W/m 12,9 km/h (3 Bft) 95,74 %
25.09.2023 01:44 12,9 C 12,2 C 8,9 C 86 % 1022,9 hPa 0,0 l/m 0 min 0 min 0 W/m 12,9 km/h (3 Bft) 95,74 %
25.09.2023 01:46 12,9 C 12,2 C 8,9 C 86 % 1022,9 hPa 0,0 l/m 0 min 0 min 0 W/m 12,9 km/h (3 Bft) 93,62 %
25.09.2023 01:48 12,9 C 12,2 C 8,9 C 86 % 1022,9 hPa 0,0 l/m 0 min 0 min 0 W/m 6,4 km/h (2 Bft) 93,62 %
25.09.2023 01:50 12,9 C 12,2 C 8,9 C 86 % 1022,9 hPa 0,0 l/m 0 min 0 min 0 W/m 6,4 km/h (2 Bft) 95,74 %
25.09.2023 01:52 12,8 C 12,2 C 8,9 C 86 % 1022,8 hPa 0,0 l/m 0 min 0 min 0 W/m 6,4 km/h (2 Bft) 95,65 %
25.09.2023 01:54 12,8 C 11,7 C 8,9 C 86 % 1022,8 hPa 0,0 l/m 0 min 0 min 0 W/m 3,2 km/h (1 Bft) 97,92 %
25.09.2023 01:56 12,8 C 11,7 C 8,9 C 86 % 1022,9 hPa 0,0 l/m 0 min 0 min 0 W/m 3,2 km/h (1 Bft) 97,87 %
25.09.2023 01:58 12,8 C 11,7 C 8,9 C 86 % 1022,8 hPa 0,0 l/m 0 min 0 min 0 W/m 3,2 km/h (1 Bft) 93,48 %
25.09.2023 02:00 12,8 C 11,7 C 8,9 C 86 % 1022,8 hPa 0,0 l/m 0 min 0 min 0 W/m 6,4 km/h (2 Bft) 93,62 %
25.09.2023 02:02 12,8 C 11,7 C 8,3 C 86 % 1022,9 hPa 0,0 l/m 0 min 0 min 0 W/m 3,2 km/h (1 Bft) 95,74 %
25.09.2023 02:04 12,8 C 11,7 C 8,3 C 86 % 1022,9 hPa 0,0 l/m 0 min 0 min 0 W/m 3,2 km/h (1 Bft) 98,00 %
25.09.2023 02:06 12,7 C 11,7 C 8,3 C 86 % 1022,9 hPa 0,0 l/m 0 min 0 min 0 W/m 3,2 km/h (1 Bft) 95,74 %
25.09.2023 02:08 12,7 C 11,7 C 8,3 C 86 % 1022,9 hPa 0,0 l/m 0 min 0 min 0 W/m 9,7 km/h (2 Bft) 97,87 %
25.09.2023 02:10 12,7 C 11,7 C 8,3 C 86 % 1022,9 hPa 0,0 l/m 0 min 0 min 0 W/m 6,4 km/h (2 Bft) 97,87 %
25.09.2023 02:12 12,7 C 11,7 C 8,3 C 86 % 1022,8 hPa 0,0 l/m 0 min 0 min 0 W/m 3,2 km/h (1 Bft) 97,87 %
25.09.2023 02:14 12,7 C 11,7 C 8,3 C 86 % 1022,8 hPa 0,0 l/m 0 min 0 min 0 W/m 6,4 km/h (2 Bft) 97,87 %
25.09.2023 02:16 12,7 C 11,7 C 8,3 C 86 % 1022,8 hPa 0,0 l/m 0 min 0 min 0 W/m 6,4 km/h (2 Bft) 100,00 %
25.09.2023 02:18 12,7 C 11,7 C 8,3 C 87 % 1022,8 hPa 0,0 l/m 0 min 0 min 0 W/m 6,4 km/h (2 Bft) 100,00 %
25.09.2023 02:20 12,6 C 11,7 C 8,3 C 87 % 1022,8 hPa 0,0 l/m 0 min 0 min 0 W/m 12,9 km/h (3 Bft) 100,00 %
25.09.2023 02:22 12,6 C 11,7 C 8,3 C 87 % 1022,8 hPa 0,0 l/m 0 min 0 min 0 W/m 3,2 km/h (1 Bft) 95,74 %
25.09.2023 02:24 12,6 C 11,7 C 8,3 C 87 % 1022,8 hPa 0,0 l/m 0 min 0 min 0 W/m 3,2 km/h (1 Bft) 97,62 %
25.09.2023 02:26 12,6 C 11,7 C 8,3 C 87 % 1022,8 hPa 0,0 l/m 0 min 0 min 0 W/m 6,4 km/h (2 Bft) 100,00 %
25.09.2023 02:28 12,6 C 11,7 C 8,3 C 87 % 1022,8 hPa 0,0 l/m 0 min 0 min 0 W/m 6,4 km/h (2 Bft) 100,00 %
25.09.2023 02:30 12,6 C 11,7 C 8,3 C 87 % 1022,9 hPa 0,0 l/m 0 min 0 min 0 W/m 3,2 km/h (1 Bft) 97,83 %
25.09.2023 02:32 12,6 C 11,7 C 8,3 C 87 % 1022,9 hPa 0,0 l/m 0 min 0 min 0 W/m 12,9 km/h (3 Bft) 97,96 %
25.09.2023 02:34 12,6 C 11,7 C 8,3 C 87 % 1022,9 hPa 0,0 l/m 0 min 0 min 0 W/m 12,9 km/h (3 Bft) 97,87 %
25.09.2023 02:36 12,6 C 11,7 C 8,3 C 87 % 1022,8 hPa 0,0 l/m 0 min 0 min 0 W/m 12,9 km/h (3 Bft) 95,74 %
25.09.2023 02:38 12,6 C 11,7 C 8,3 C 87 % 1022,8 hPa 0,0 l/m 0 min 0 min 0 W/m 12,9 km/h (3 Bft) 97,87 %
25.09.2023 02:40 12,6 C 11,7 C 8,3 C 87 % 1022,8 hPa 0,0 l/m 0 min 0 min 0 W/m 6,4 km/h (2 Bft) 97,83 %
25.09.2023 02:42 12,6 C 11,7 C 8,3 C 87 % 1022,8 hPa 0,0 l/m 0 min 0 min 0 W/m 6,4 km/h (2 Bft) 95,74 %
25.09.2023 02:44 12,6 C 11,7 C 8,3 C 87 % 1022,7 hPa 0,0 l/m 0 min 0 min 0 W/m 12,9 km/h (3 Bft) 97,87 %
25.09.2023 02:46 12,6 C 11,7 C 8,3 C 87 % 1022,8 hPa 0,0 l/m 0 min 0 min 0 W/m 6,4 km/h (2 Bft) 95,74 %
25.09.2023 02:48 12,6 C 11,7 C 8,3 C 87 % 1022,9 hPa 0,0 l/m 0 min 0 min 0 W/m 3,2 km/h (1 Bft) 97,87 %
25.09.2023 02:50 12,6 C 11,7 C 8,3 C 87 % 1022,8 hPa 0,0 l/m 0 min 0 min 0 W/m 12,9 km/h (3 Bft) 97,87 %
25.09.2023 02:52 12,6 C 11,7 C 8,3 C 87 % 1022,9 hPa 0,0 l/m 0 min 0 min 0 W/m 6,4 km/h (2 Bft) 97,83 %
25.09.2023 02:54 12,6 C 11,7 C 8,3 C 87 % 1022,9 hPa 0,0 l/m 0 min 0 min 0 W/m 6,4 km/h (2 Bft) 97,87 %
25.09.2023 02:56 12,6 C 11,7 C 8,3 C 87 % 1022,9 hPa 0,0 l/m 0 min 0 min 0 W/m 19,3 km/h (3 Bft) 97,87 %
25.09.2023 02:58 12,6 C 11,7 C 8,3 C 87 % 1022,9 hPa 0,0 l/m 0 min 0 min 0 W/m 12,9 km/h (3 Bft) 100,00 %
25.09.2023 03:00 12,6 C 11,7 C 8,3 C 87 % 1022,9 hPa 0,0 l/m 0 min 0 min 0 W/m 6,4 km/h (2 Bft) 97,87 %
25.09.2023 03:02 12,6 C 11,7 C 8,3 C 87 % 1022,9 hPa 0,0 l/m 0 min 0 min 0 W/m 6,4 km/h (2 Bft) 97,87 %
25.09.2023 03:04 12,6 C 11,7 C 8,3 C 87 % 1022,9 hPa 0,0 l/m 0 min 0 min 0 W/m 6,4 km/h (2 Bft) 100,00 %
25.09.2023 03:08 12,6 C 11,7 C 8,3 C 86 % 1023,0 hPa 0,0 l/m 0 min 0 min 0 W/m 6,4 km/h (2 Bft) 100,00 %
25.09.2023 03:10 12,6 C 11,7 C 8,3 C 86 % 1023,0 hPa 0,0 l/m 0 min 0 min 0 W/m 12,9 km/h (3 Bft) 100,00 %
25.09.2023 03:12 12,6 C 11,7 C 8,3 C 86 % 1023,0 hPa 0,0 l/m 0 min 0 min 0 W/m 12,9 km/h (3 Bft) 100,00 %
25.09.2023 03:14 12,5 C 11,7 C 8,3 C 87 % 1023,0 hPa 0,0 l/m 0 min 0 min 0 W/m 12,9 km/h (3 Bft) 97,87 %
25.09.2023 03:16 12,5 C 11,7 C 8,3 C 87 % 1023,0 hPa 0,0 l/m 0 min 0 min 0 W/m 6,4 km/h (2 Bft) 97,87 %
25.09.2023 03:18 12,5 C 11,7 C 8,3 C 87 % 1023,0 hPa 0,0 l/m 0 min 0 min 0 W/m 12,9 km/h (3 Bft) 100,00 %
25.09.2023 03:20 12,5 C 11,7 C 8,3 C 87 % 1023,0 hPa 0,0 l/m 0 min 0 min 0 W/m 6,4 km/h (2 Bft) 100,00 %
25.09.2023 03:22 12,5 C 11,7 C 8,3 C 86 % 1023,0 hPa 0,0 l/m 0 min 0 min 0 W/m 12,9 km/h (3 Bft) 100,00 %
25.09.2023 03:24 12,5 C 11,7 C 8,3 C 86 % 1023,0 hPa 0,0 l/m 0 min 0 min 0 W/m 6,4 km/h (2 Bft) 100,00 %
25.09.2023 03:26 12,5 C 11,7 C 8,3 C 86 % 1023,0 hPa 0,0 l/m 0 min 0 min 0 W/m 6,4 km/h (2 Bft) 100,00 %
25.09.2023 03:28 12,5 C 11,7 C 8,3 C 87 % 1023,0 hPa 0,0 l/m 0 min 0 min 0 W/m 6,4 km/h (2 Bft) 97,56 %
25.09.2023 03:30 12,5 C 11,7 C 8,3 C 87 % 1023,0 hPa 0,0 l/m 0 min 0 min 0 W/m 12,9 km/h (3 Bft) 100,00 %
25.09.2023 03:32 12,5 C 11,7 C 8,3 C 87 % 1023,0 hPa 0,0 l/m 0 min 0 min 0 W/m 6,4 km/h (2 Bft) 100,00 %
25.09.2023 03:34 12,5 C 11,7 C 8,3 C 87 % 1023,0 hPa 0,0 l/m 0 min 0 min 0 W/m 12,9 km/h (3 Bft) 100,00 %
25.09.2023 03:36 12,5 C 11,7 C 8,3 C 87 % 1023,0 hPa 0,0 l/m 0 min 0 min 0 W/m 6,4 km/h (2 Bft) 100,00 %
25.09.2023 03:38 12,5 C 11,7 C 8,3 C 87 % 1023,0 hPa 0,0 l/m 0 min 0 min 0 W/m 6,4 km/h (2 Bft) 97,87 %
25.09.2023 03:40 12,4 C 11,7 C 8,3 C 87 % 1023,0 hPa 0,0 l/m 0 min 0 min 0 W/m 3,2 km/h (1 Bft) 100,00 %
25.09.2023 03:42 12,4 C 11,7 C 8,3 C 87 % 1023,0 hPa 0,0 l/m 0 min 0 min 0 W/m 3,2 km/h (1 Bft) 100,00 %
25.09.2023 03:44 12,4 C 11,7 C 8,3 C 87 % 1023,0 hPa 0,0 l/m 0 min 0 min 0 W/m 3,2 km/h (1 Bft) 95,74 %
25.09.2023 03:46 12,4 C 11,7 C 8,3 C 87 % 1023,0 hPa 0,0 l/m 0 min 0 min 0 W/m 16,1 km/h (3 Bft) 97,87 %
25.09.2023 03:48 12,4 C 11,7 C 8,3 C 87 % 1023,1 hPa 0,0 l/m 0 min 0 min 0 W/m 3,2 km/h (1 Bft) 95,74 %
25.09.2023 03:50 12,4 C 11,7 C 8,3 C 87 % 1023,0 hPa 0,0 l/m 0 min 0 min 0 W/m 12,9 km/h (3 Bft) 95,74 %
25.09.2023 03:52 12,4 C 11,7 C 8,3 C 87 % 1023,1 hPa 0,0 l/m 0 min 0 min 0 W/m 6,4 km/h (2 Bft) 97,87 %
25.09.2023 03:54 12,4 C 11,7 C 8,3 C 87 % 1023,1 hPa 0,0 l/m 0 min 0 min 0 W/m 6,4 km/h (2 Bft) 95,74 %
25.09.2023 03:56 12,3 C 11,7 C 8,3 C 87 % 1023,1 hPa 0,0 l/m 0 min 0 min 0 W/m 6,4 km/h (2 Bft) 95,65 %
25.09.2023 03:58 12,3 C 11,7 C 8,3 C 87 % 1023,1 hPa 0,0 l/m 0 min 0 min 0 W/m 3,2 km/h (1 Bft) 95,74 %
25.09.2023 04:00 12,3 C 11,1 C 8,3 C 87 % 1023,1 hPa 0,0 l/m 0 min 0 min 0 W/m 3,2 km/h (1 Bft) 97,87 %
25.09.2023 04:02 12,3 C 11,1 C 8,3 C 87 % 1023,1 hPa 0,0 l/m 0 min 0 min 0 W/m 3,2 km/h (1 Bft) 97,87 %
25.09.2023 04:04 12,3 C 11,1 C 8,3 C 87 % 1023,1 hPa 0,0 l/m 0 min 0 min 0 W/m 3,2 km/h (1 Bft) 97,96 %
25.09.2023 04:06 12,3 C 11,1 C 8,3 C 87 % 1023,1 hPa 0,0 l/m 0 min 0 min 0 W/m 6,4 km/h (2 Bft) 95,74 %
25.09.2023 04:08 12,2 C 11,1 C 8,3 C 87 % 1023,2 hPa 0,0 l/m 0 min 0 min 0 W/m 3,2 km/h (1 Bft) 95,74 %
25.09.2023 04:10 12,2 C 11,1 C 8,3 C 87 % 1023,2 hPa 0,0 l/m 0 min 0 min 0 W/m 6,4 km/h (2 Bft) 97,87 %
25.09.2023 04:12 12,2 C 11,1 C 8,3 C 87 % 1023,1 hPa 0,0 l/m 0 min 0 min 0 W/m 0,0 km/h (0 Bft) 97,87 %
25.09.2023 04:14 12,2 C 11,1 C 8,3 C 87 % 1023,2 hPa 0,0 l/m 0 min 0 min 0 W/m 6,4 km/h (2 Bft) 91,49 %
25.09.2023 04:16 12,2 C 11,1 C 8,3 C 87 % 1023,2 hPa 0,0 l/m 0 min 0 min 0 W/m 3,2 km/h (1 Bft) 93,62 %
25.09.2023 04:18 12,2 C 11,1 C 7,8 C 87 % 1023,2 hPa 0,0 l/m 0 min 0 min 0 W/m 3,2 km/h (1 Bft) 91,30 %
25.09.2023 04:20 12,2 C 11,1 C 7,8 C 87 % 1023,2 hPa 0,0 l/m 0 min 0 min 0 W/m 0,0 km/h (0 Bft) 91,49 %
25.09.2023 04:22 12,1 C 11,1 C 7,8 C 87 % 1023,3 hPa 0,0 l/m 0 min 0 min 0 W/m 3,2 km/h (1 Bft) 89,36 %
25.09.2023 04:24 12,1 C 11,1 C 7,8 C 87 % 1023,3 hPa 0,0 l/m 0 min 0 min 0 W/m 6,4 km/h (2 Bft) 91,49 %
25.09.2023 04:26 12,1 C 11,1 C 7,8 C 87 % 1023,3 hPa 0,0 l/m 0 min 0 min 0 W/m 3,2 km/h (1 Bft) 93,62 %
25.09.2023 04:28 12,1 C 11,1 C 7,8 C 87 % 1023,3 hPa 0,0 l/m 0 min 0 min 0 W/m 0,0 km/h (0 Bft) 93,62 %
25.09.2023 04:30 12,1 C 11,1 C 7,8 C 87 % 1023,2 hPa 0,0 l/m 0 min 0 min 0 W/m 0,0 km/h (0 Bft) 95,74 %
25.09.2023 04:32 12,1 C 11,1 C 7,8 C 88 % 1023,3 hPa 0,0 l/m 0 min 0 min 0 W/m 3,2 km/h (1 Bft) 97,87 %
25.09.2023 04:34 12,0 C 10,6 C 7,8 C 88 % 1023,2 hPa 0,0 l/m 0 min 0 min 0 W/m 0,0 km/h (0 Bft) 95,65 %
25.09.2023 04:36 12,0 C 10,6 C 7,8 C 88 % 1023,3 hPa 0,0 l/m 0 min 0 min 0 W/m 6,4 km/h (2 Bft) 95,74 %
25.09.2023 04:38 12,0 C 10,6 C 7,8 C 88 % 1023,2 hPa 0,0 l/m 0 min 0 min 0 W/m 3,2 km/h (1 Bft) 95,74 %
25.09.2023 04:40 11,9 C 10,6 C 7,8 C 88 % 1023,2 hPa 0,0 l/m 0 min 0 min 0 W/m 3,2 km/h (1 Bft) 95,74 %
25.09.2023 04:42 11,9 C 10,6 C 7,8 C 88 % 1023,2 hPa 0,0 l/m 0 min 0 min 0 W/m 3,2 km/h (1 Bft) 95,74 %
25.09.2023 04:44 11,9 C 10,6 C 7,8 C 88 % 1023,2 hPa 0,0 l/m 0 min 0 min 0 W/m 3,2 km/h (1 Bft) 97,87 %
25.09.2023 04:46 11,8 C 10,6 C 7,8 C 88 % 1023,1 hPa 0,0 l/m 0 min 0 min 0 W/m 6,4 km/h (2 Bft) 97,87 %
25.09.2023 04:48 11,8 C 10,6 C 7,8 C 88 % 1023,1 hPa 0,0 l/m 0 min 0 min 0 W/m 6,4 km/h (2 Bft) 97,96 %
25.09.2023 04:50 11,8 C 10,6 C 7,8 C 88 % 1023,1 hPa 0,0 l/m 0 min 0 min 0 W/m 6,4 km/h (2 Bft) 97,87 %
25.09.2023 04:52 11,8 C 10,6 C 7,8 C 88 % 1023,1 hPa 0,0 l/m 0 min 0 min 0 W/m 3,2 km/h (1 Bft) 97,87 %
25.09.2023 04:54 11,8 C 10,6 C 7,8 C 88 % 1023,0 hPa 0,0 l/m 0 min 0 min 0 W/m 12,9 km/h (3 Bft) 97,67 %
25.09.2023 04:56 11,7 C 10,6 C 7,8 C 88 % 1023,1 hPa 0,0 l/m 0 min 0 min 0 W/m 6,4 km/h (2 Bft) 97,87 %
25.09.2023 04:58 11,7 C 10,6 C 7,8 C 88 % 1023,0 hPa 0,0 l/m 0 min 0 min 0 W/m 6,4 km/h (2 Bft) 95,83 %
25.09.2023 05:00 11,7 C 10,6 C 7,8 C 89 % 1023,0 hPa 0,0 l/m 0 min 0 min 0 W/m 12,9 km/h (3 Bft) 97,96 %
25.09.2023 05:02 11,7 C 10,6 C 7,8 C 89 % 1023,0 hPa 0,0 l/m 0 min 0 min 0 W/m 6,4 km/h (2 Bft) 97,83 %
25.09.2023 05:04 11,7 C 10,6 C 7,8 C 89 % 1023,0 hPa 0,0 l/m 0 min 0 min 0 W/m 3,2 km/h (1 Bft) 95,83 %
25.09.2023 05:06 11,6 C 10,6 C 7,8 C 89 % 1023,0 hPa 0,0 l/m 0 min 0 min 0 W/m 6,4 km/h (2 Bft) 97,87 %
25.09.2023 05:08 11,6 C 10,6 C 7,8 C 89 % 1023,0 hPa 0,0 l/m 0 min 0 min 0 W/m 3,2 km/h (1 Bft) 97,87 %
25.09.2023 05:10 11,6 C 10,6 C 7,8 C 89 % 1023,0 hPa 0,0 l/m 0 min 0 min 0 W/m 6,4 km/h (2 Bft) 100,00 %
25.09.2023 05:12 11,6 C 10,6 C 7,2 C 89 % 1023,0 hPa 0,0 l/m 0 min 0 min 0 W/m 6,4 km/h (2 Bft) 100,00 %
25.09.2023 05:14 11,5 C 10,6 C 7,2 C 89 % 1023,0 hPa 0,0 l/m 0 min 0 min 0 W/m 12,9 km/h (3 Bft) 97,87 %
25.09.2023 05:16 11,5 C 10,6 C 7,2 C 89 % 1023,0 hPa 0,0 l/m 0 min 0 min 0 W/m 12,9 km/h (3 Bft) 100,00 %
25.09.2023 05:18 11,4 C 10,6 C 7,2 C 89 % 1023,0 hPa 0,0 l/m 0 min 0 min 0 W/m 6,4 km/h (2 Bft) 100,00 %
25.09.2023 05:20 11,4 C 10,6 C 7,2 C 89 % 1023,0 hPa 0,0 l/m 0 min 0 min 0 W/m 6,4 km/h (2 Bft) 100,00 %
25.09.2023 05:22 11,4 C 10,6 C 7,2 C 89 % 1023,0 hPa 0,0 l/m 0 min 0 min 0 W/m 6,4 km/h (2 Bft) 100,00 %
25.09.2023 05:24 11,4 C 10,6 C 7,2 C 89 % 1023,0 hPa 0,0 l/m 0 min 0 min 0 W/m 12,9 km/h (3 Bft) 97,87 %
25.09.2023 05:26 11,4 C 10,6 C 7,2 C 89 % 1023,0 hPa 0,0 l/m 0 min 0 min 0 W/m 9,7 km/h (2 Bft) 100,00 %
25.09.2023 05:28 11,4 C 10,6 C 7,2 C 89 % 1023,0 hPa 0,0 l/m 0 min 0 min 0 W/m 3,2 km/h (1 Bft) 100,00 %
25.09.2023 05:30 11,4 C 10,6 C 7,2 C 90 % 1023,0 hPa 0,0 l/m 0 min 0 min 0 W/m 6,4 km/h (2 Bft) 97,87 %
25.09.2023 05:32 11,4 C 10,6 C 7,2 C 90 % 1023,0 hPa 0,0 l/m 0 min 0 min 0 W/m 6,4 km/h (2 Bft) 100,00 %
25.09.2023 05:34 11,4 C 10,6 C 7,2 C 90 % 1023,0 hPa 0,0 l/m 0 min 0 min 0 W/m 6,4 km/h (2 Bft) 100,00 %
25.09.2023 05:36 11,4 C 10,6 C 7,2 C 90 % 1023,0 hPa 0,0 l/m 0 min 0 min 0 W/m 6,4 km/h (2 Bft) 100,00 %
25.09.2023 05:38 11,4 C 10,6 C 7,2 C 90 % 1023,0 hPa 0,0 l/m 0 min 0 min 0 W/m 6,4 km/h (2 Bft) 100,00 %
25.09.2023 05:40 11,4 C 10,6 C 7,2 C 90 % 1023,0 hPa 0,0 l/m 0 min 0 min 0 W/m 6,4 km/h (2 Bft) 95,74 %
25.09.2023 05:42 11,4 C 10,6 C 7,2 C 90 % 1023,0 hPa 0,0 l/m 0 min 0 min 0 W/m 9,7 km/h (2 Bft) 100,00 %
25.09.2023 05:44 11,4 C 10,6 C 7,8 C 90 % 1023,0 hPa 0,0 l/m 0 min 0 min 0 W/m 6,4 km/h (2 Bft) 100,00 %
25.09.2023 05:46 11,4 C 10,6 C 7,2 C 90 % 1023,0 hPa 0,0 l/m 0 min 0 min 0 W/m 3,2 km/h (1 Bft) 100,00 %
25.09.2023 05:48 11,4 C 10,6 C 7,2 C 90 % 1023,0 hPa 0,0 l/m 0 min 0 min 0 W/m 6,4 km/h (2 Bft) 97,83 %
25.09.2023 05:50 11,4 C 10,6 C 7,8 C 90 % 1023,0 hPa 0,0 l/m 0 min 0 min 0 W/m 12,9 km/h (3 Bft) 100,00 %
25.09.2023 05:52 11,4 C 10,6 C 7,8 C 90 % 1023,0 hPa 0,0 l/m 0 min 0 min 0 W/m 6,4 km/h (2 Bft) 100,00 %
25.09.2023 05:54 11,4 C 10,6 C 7,8 C 90 % 1023,0 hPa 0,0 l/m 0 min 0 min 0 W/m 6,4 km/h (2 Bft) 100,00 %
25.09.2023 05:56 11,4 C 10,6 C 7,8 C 90 % 1023,0 hPa 0,0 l/m 0 min 0 min 0 W/m 12,9 km/h (3 Bft) 95,74 %
25.09.2023 05:58 11,4 C 10,6 C 7,8 C 90 % 1023,0 hPa 0,0 l/m 0 min 0 min 0 W/m 6,4 km/h (2 Bft) 95,74 %
25.09.2023 06:00 11,4 C 10,6 C 7,8 C 90 % 1023,0 hPa 0,0 l/m 0 min 0 min 0 W/m 12,9 km/h (3 Bft) 97,87 %
25.09.2023 06:02 11,4 C 10,6 C 7,8 C 90 % 1023,0 hPa 0,0 l/m 0 min 0 min 0 W/m 6,4 km/h (2 Bft) 97,83 %
25.09.2023 06:04 11,4 C 10,6 C 7,8 C 90 % 1023,0 hPa 0,0 l/m 0 min 0 min 0 W/m 6,4 km/h (2 Bft) 95,45 %
25.09.2023 06:08 11,4 C 11,1 C 7,8 C 90 % 1023,0 hPa 0,0 l/m 0 min 0 min 0 W/m 6,4 km/h (2 Bft) 96,04 %
25.09.2023 06:10 11,4 C 11,1 C 7,8 C 90 % 1023,0 hPa 0,0 l/m 0 min 0 min 0 W/m 6,4 km/h (2 Bft) 95,74 %
25.09.2023 06:12 11,4 C 11,1 C 7,8 C 90 % 1023,0 hPa 0,0 l/m 0 min 0 min 0 W/m 6,4 km/h (2 Bft) 91,49 %
25.09.2023 06:16 11,5 C 11,1 C 7,8 C 90 % 1023,1 hPa 0,0 l/m 0 min 0 min 0 W/m 12,9 km/h (3 Bft) 95,70 %
25.09.2023 06:18 11,5 C 11,1 C 7,8 C 90 % 1023,0 hPa 0,0 l/m 0 min 0 min 0 W/m 12,9 km/h (3 Bft) 95,74 %
25.09.2023 06:20 11,6 C 11,1 C 7,8 C 90 % 1023,0 hPa 0,0 l/m 0 min 0 min 0 W/m 12,9 km/h (3 Bft) 95,74 %
25.09.2023 06:22 11,6 C 11,1 C 7,8 C 90 % 1023,0 hPa 0,0 l/m 0 min 0 min 0 W/m 12,9 km/h (3 Bft) 95,74 %
25.09.2023 06:24 11,6 C 11,1 C 7,8 C 90 % 1023,0 hPa 0,0 l/m 0 min 0 min 0 W/m 16,1 km/h (3 Bft) 95,74 %
25.09.2023 06:26 11,6 C 11,1 C 7,8 C 90 % 1022,9 hPa 0,0 l/m 0 min 0 min 0 W/m 12,9 km/h (3 Bft) 95,74 %
25.09.2023 06:28 11,6 C 11,1 C 7,8 C 90 % 1022,9 hPa 0,0 l/m 0 min 0 min 0 W/m 9,7 km/h (2 Bft) 97,83 %
25.09.2023 06:30 11,6 C 11,1 C 7,8 C 89 % 1023,0 hPa 0,0 l/m 0 min 0 min 0 W/m 6,4 km/h (2 Bft) 97,87 %
25.09.2023 06:32 11,7 C 11,1 C 7,8 C 89 % 1022,9 hPa 0,0 l/m 0 min 0 min 0 W/m 16,1 km/h (3 Bft) 97,87 %
25.09.2023 06:34 11,7 C 11,1 C 7,8 C 89 % 1023,0 hPa 0,0 l/m 0 min 0 min 0 W/m 6,4 km/h (2 Bft) 97,87 %
25.09.2023 06:36 11,7 C 11,1 C 7,8 C 89 % 1023,0 hPa 0,0 l/m 0 min 0 min 0 W/m 12,9 km/h (3 Bft) 97,87 %
25.09.2023 06:38 11,7 C 11,1 C 7,8 C 89 % 1023,0 hPa 0,0 l/m 0 min 0 min 0 W/m 12,9 km/h (3 Bft) 95,74 %
25.09.2023 06:40 11,7 C 11,1 C 7,8 C 89 % 1023,0 hPa 0,0 l/m 0 min 0 min 0 W/m 6,4 km/h (2 Bft) 97,87 %
25.09.2023 06:42 11,7 C 11,1 C 7,8 C 89 % 1023,0 hPa 0,0 l/m 0 min 0 min 0 W/m 6,4 km/h (2 Bft) 97,87 %
25.09.2023 06:44 11,7 C 11,1 C 7,8 C 89 % 1023,0 hPa 0,0 l/m 0 min 0 min 0 W/m 3,2 km/h (1 Bft) 97,83 %
25.09.2023 06:46 11,7 C 11,1 C 7,8 C 89 % 1023,0 hPa 0,0 l/m 0 min 0 min 0 W/m 3,2 km/h (1 Bft) 100,00 %
25.09.2023 06:48 11,7 C 11,1 C 7,8 C 89 % 1023,0 hPa 0,0 l/m 0 min 0 min 0 W/m 9,7 km/h (2 Bft) 100,00 %
25.09.2023 06:50 11,7 C 11,1 C 7,8 C 89 % 1023,0 hPa 0,0 l/m 0 min 0 min 0 W/m 6,4 km/h (2 Bft) 97,87 %
25.09.2023 06:52 11,7 C 11,1 C 7,8 C 89 % 1023,0 hPa 0,0 l/m 0 min 0 min 0 W/m 6,4 km/h (2 Bft) 100,00 %
25.09.2023 06:54 11,7 C 11,1 C 7,8 C 89 % 1023,0 hPa 0,0 l/m 0 min 0 min 0 W/m 3,2 km/h (1 Bft) 100,00 %
25.09.2023 06:56 11,7 C 11,1 C 7,8 C 89 % 1023,0 hPa 0,0 l/m 0 min 0 min 0 W/m 6,4 km/h (2 Bft) 100,00 %
25.09.2023 06:58 11,8 C 11,1 C 7,8 C 89 % 1023,0 hPa 0,0 l/m 0 min 0 min 0 W/m 6,4 km/h (2 Bft) 100,00 %
25.09.2023 07:00 11,8 C 11,1 C 7,8 C 88 % 1023,0 hPa 0,0 l/m 0 min 0 min 0 W/m 6,4 km/h (2 Bft) 100,00 %
25.09.2023 07:02 11,8 C 11,1 C 7,8 C 88 % 1023,0 hPa 0,0 l/m 0 min 0 min 0 W/m 3,2 km/h (1 Bft) 100,00 %
25.09.2023 07:04 11,8 C 11,1 C 7,8 C 88 % 1023,0 hPa 0,0 l/m 0 min 0 min 0 W/m 6,4 km/h (2 Bft) 100,00 %
25.09.2023 07:06 11,7 C 11,1 C 7,8 C 88 % 1023,1 hPa 0,0 l/m 0 min 0 min 0 W/m 3,2 km/h (1 Bft) 100,00 %
25.09.2023 07:08 11,7 C 11,1 C 7,8 C 88 % 1023,1 hPa 0,0 l/m 0 min 0 min 0 W/m 3,2 km/h (1 Bft) 100,00 %
25.09.2023 07:10 11,7 C 11,1 C 7,8 C 88 % 1023,1 hPa 0,0 l/m 0 min 0 min 0 W/m 6,4 km/h (2 Bft) 100,00 %
25.09.2023 07:12 11,7 C 11,1 C 7,8 C 88 % 1023,1 hPa 0,0 l/m 0 min 0 min 0 W/m 12,9 km/h (3 Bft) 100,00 %
25.09.2023 07:14 11,7 C 11,1 C 7,8 C 88 % 1023,1 hPa 0,0 l/m 0 min 0 min 0 W/m 6,4 km/h (2 Bft) 100,00 %
25.09.2023 07:16 11,7 C 11,1 C 7,8 C 88 % 1023,1 hPa 0,0 l/m 0 min 0 min 0 W/m 6,4 km/h (2 Bft) 100,00 %
25.09.2023 07:18 11,7 C 11,1 C 7,8 C 88 % 1023,1 hPa 0,0 l/m 0 min 0 min 2 W/m 6,4 km/h (2 Bft) 100,00 %
25.09.2023 07:20 11,7 C 11,1 C 7,8 C 88 % 1023,2 hPa 0,0 l/m 0 min 0 min 4 W/m 3,2 km/h (1 Bft) 97,87 %
25.09.2023 07:22 11,7 C 11,1 C 7,8 C 88 % 1023,1 hPa 0,0 l/m 0 min 0 min 0 W/m 6,4 km/h (2 Bft) 100,00 %
25.09.2023 07:24 11,7 C 11,1 C 7,8 C 88 % 1023,1 hPa 0,0 l/m 0 min 0 min 0 W/m 6,4 km/h (2 Bft) 100,00 %
25.09.2023 07:26 11,7 C 10,6 C 7,8 C 88 % 1023,1 hPa 0,0 l/m 0 min 0 min 0 W/m 6,4 km/h (2 Bft) 100,00 %
25.09.2023 07:28 11,6 C 10,6 C 7,8 C 88 % 1023,1 hPa 0,0 l/m 0 min 0 min 2 W/m 6,4 km/h (2 Bft) 100,00 %
25.09.2023 07:30 11,6 C 10,6 C 7,8 C 88 % 1023,1 hPa 0,0 l/m 0 min 0 min 5 W/m 3,2 km/h (1 Bft) 97,87 %
25.09.2023 07:32 11,6 C 10,6 C 7,8 C 88 % 1023,1 hPa 0,0 l/m 0 min 0 min 7 W/m 3,2 km/h (1 Bft) 95,65 %
25.09.2023 07:34 11,6 C 10,6 C 7,8 C 88 % 1023,1 hPa 0,0 l/m 0 min 0 min 9 W/m 6,4 km/h (2 Bft) 97,87 %
25.09.2023 07:36 11,6 C 10,6 C 7,8 C 88 % 1023,1 hPa 0,0 l/m 0 min 0 min 10 W/m 6,4 km/h (2 Bft) 97,87 %
25.09.2023 07:38 11,6 C 10,6 C 7,8 C 88 % 1023,1 hPa 0,0 l/m 0 min 0 min 12 W/m 3,2 km/h (1 Bft) 97,87 %
25.09.2023 07:40 11,6 C 10,6 C 7,8 C 88 % 1023,1 hPa 0,0 l/m 0 min 0 min 12 W/m 3,2 km/h (1 Bft) 95,74 %
25.09.2023 07:42 11,6 C 11,1 C 7,8 C 88 % 1023,2 hPa 0,0 l/m 0 min 0 min 14 W/m 6,4 km/h (2 Bft) 95,74 %
25.09.2023 07:44 11,6 C 11,1 C 7,8 C 88 % 1023,2 hPa 0,0 l/m 0 min 0 min 14 W/m 12,9 km/h (3 Bft) 95,65 %
25.09.2023 07:46 11,6 C 11,1 C 7,8 C 88 % 1023,2 hPa 0,0 l/m 0 min 0 min 16 W/m 6,4 km/h (2 Bft) 95,74 %
25.09.2023 07:48 11,6 C 11,1 C 7,8 C 88 % 1023,2 hPa 0,0 l/m 0 min 0 min 18 W/m 3,2 km/h (1 Bft) 95,74 %
25.09.2023 07:50 11,6 C 11,1 C 7,8 C 88 % 1023,2 hPa 0,0 l/m 0 min 0 min 19 W/m 9,7 km/h (2 Bft) 95,74 %
25.09.2023 07:52 11,6 C 11,1 C 7,8 C 89 % 1023,2 hPa 0,0 l/m 0 min 0 min 20 W/m 3,2 km/h (1 Bft) 95,74 %
25.09.2023 07:54 11,6 C 11,1 C 7,8 C 89 % 1023,2 hPa 0,0 l/m 0 min 0 min 21 W/m 12,9 km/h (3 Bft) 95,00 %
25.09.2023 07:56 11,6 C 11,1 C 7,8 C 89 % 1023,2 hPa 0,0 l/m 0 min 0 min 23 W/m 6,4 km/h (2 Bft) 95,74 %
25.09.2023 07:58 11,6 C 11,1 C 7,8 C 89 % 1023,3 hPa 0,0 l/m 0 min 0 min 25 W/m 3,2 km/h (1 Bft) 95,74 %
25.09.2023 08:00 11,6 C 11,1 C 7,8 C 89 % 1023,3 hPa 0,0 l/m 0 min 0 min 26 W/m 6,4 km/h (2 Bft) 93,48 %
25.09.2023 08:02 11,6 C 11,1 C 7,8 C 89 % 1023,3 hPa 0,0 l/m 0 min 0 min 28 W/m 6,4 km/h (2 Bft) 95,74 %
25.09.2023 08:04 11,6 C 11,1 C 7,8 C 89 % 1023,3 hPa 0,0 l/m 0 min 0 min 31 W/m 6,4 km/h (2 Bft) 94,12 %
25.09.2023 08:08 11,6 C 11,1 C 7,8 C 89 % 1023,4 hPa 0,0 l/m 0 min 0 min 33 W/m 6,4 km/h (2 Bft) 94,51 %
25.09.2023 08:10 11,7 C 11,1 C 7,8 C 89 % 1023,3 hPa 0,0 l/m 0 min 0 min 37 W/m 6,4 km/h (2 Bft) 95,74 %
25.09.2023 08:12 11,7 C 11,1 C 7,8 C 89 % 1023,3 hPa 0,0 l/m 0 min 0 min 39 W/m 6,4 km/h (2 Bft) 95,74 %
25.09.2023 08:14 11,7 C 11,1 C 7,8 C 89 % 1023,3 hPa 0,0 l/m 0 min 0 min 41 W/m 6,4 km/h (2 Bft) 95,65 %
25.09.2023 08:16 11,7 C 11,7 C 7,8 C 89 % 1023,3 hPa 0,0 l/m 0 min 0 min 43 W/m 3,2 km/h (1 Bft) 97,87 %
25.09.2023 08:18 11,7 C 11,7 C 7,8 C 89 % 1023,3 hPa 0,0 l/m 0 min 0 min 45 W/m 6,4 km/h (2 Bft) 97,87 %
25.09.2023 08:20 11,7 C 11,7 C 7,8 C 89 % 1023,3 hPa 0,0 l/m 0 min 0 min 48 W/m 6,4 km/h (2 Bft) 95,74 %
25.09.2023 08:22 11,8 C 11,7 C 7,8 C 89 % 1023,3 hPa 0,0 l/m 0 min 0 min 52 W/m 6,4 km/h (2 Bft) 95,74 %
25.09.2023 08:24 11,8 C 11,7 C 8,3 C 89 % 1023,4 hPa 0,0 l/m 0 min 0 min 54 W/m 6,4 km/h (2 Bft) 97,87 %
25.09.2023 08:26 11,8 C 11,7 C 8,3 C 89 % 1023,3 hPa 0,0 l/m 0 min 0 min 56 W/m 6,4 km/h (2 Bft) 100,00 %
25.09.2023 08:28 11,9 C 11,7 C 8,3 C 89 % 1023,3 hPa 0,0 l/m 0 min 0 min 58 W/m 6,4 km/h (2 Bft) 97,83 %
25.09.2023 08:30 11,9 C 11,7 C 8,3 C 89 % 1023,3 hPa 0,0 l/m 0 min 0 min 60 W/m 6,4 km/h (2 Bft) 97,87 %
25.09.2023 08:32 12,0 C 11,7 C 8,3 C 89 % 1023,3 hPa 0,0 l/m 0 min 0 min 61 W/m 6,4 km/h (2 Bft) 95,74 %
25.09.2023 08:34 12,0 C 12,2 C 8,3 C 89 % 1023,3 hPa 0,0 l/m 0 min 0 min 62 W/m 6,4 km/h (2 Bft) 95,74 %
25.09.2023 08:36 12,1 C 12,2 C 8,3 C 89 % 1023,3 hPa 0,0 l/m 0 min 0 min 63 W/m 12,9 km/h (3 Bft) 97,87 %
25.09.2023 08:38 12,1 C 12,2 C 8,3 C 89 % 1023,2 hPa 0,0 l/m 0 min 0 min 63 W/m 12,9 km/h (3 Bft) 97,87 %
25.09.2023 08:40 12,1 C 12,2 C 8,3 C 89 % 1023,3 hPa 0,0 l/m 0 min 0 min 63 W/m 6,4 km/h (2 Bft) 95,65 %
25.09.2023 08:42 12,2 C 12,2 C 8,3 C 89 % 1023,3 hPa 0,0 l/m 0 min 0 min 63 W/m 12,9 km/h (3 Bft) 97,87 %
25.09.2023 08:44 12,2 C 12,2 C 8,3 C 88 % 1023,3 hPa 0,0 l/m 0 min 0 min 64 W/m 19,3 km/h (3 Bft) 97,87 %
25.09.2023 08:46 12,3 C 12,2 C 8,9 C 88 % 1023,3 hPa 0,0 l/m 0 min 0 min 65 W/m 12,9 km/h (3 Bft) 93,62 %
25.09.2023 08:48 12,3 C 12,2 C 8,9 C 88 % 1023,3 hPa 0,0 l/m 0 min 0 min 67 W/m 12,9 km/h (3 Bft) 97,87 %
25.09.2023 08:50 12,4 C 12,2 C 8,9 C 88 % 1023,3 hPa 0,0 l/m 0 min 0 min 69 W/m 16,1 km/h (3 Bft) 97,87 %
25.09.2023 08:52 12,4 C 12,2 C 8,9 C 88 % 1023,3 hPa 0,0 l/m 0 min 0 min 70 W/m 12,9 km/h (3 Bft) 95,74 %
25.09.2023 08:54 12,5 C 12,8 C 8,9 C 88 % 1023,3 hPa 0,0 l/m 0 min 0 min 73 W/m 12,9 km/h (3 Bft) 97,92 %
25.09.2023 08:56 12,6 C 12,8 C 8,9 C 87 % 1023,3 hPa 0,0 l/m 0 min 0 min 76 W/m 12,9 km/h (3 Bft) 97,83 %
25.09.2023 08:58 12,6 C 12,8 C 8,9 C 87 % 1023,3 hPa 0,0 l/m 0 min 0 min 77 W/m 19,3 km/h (3 Bft) 93,62 %
25.09.2023 09:00 12,7 C 12,8 C 8,9 C 87 % 1023,3 hPa 0,0 l/m 0 min 0 min 81 W/m 16,1 km/h (3 Bft) 97,87 %
25.09.2023 09:02 12,8 C 12,8 C 8,9 C 86 % 1023,4 hPa 0,0 l/m 0 min 0 min 81 W/m 6,4 km/h (2 Bft) 95,74 %
25.09.2023 09:04 12,8 C 12,8 C 8,9 C 86 % 1023,4 hPa 0,0 l/m 0 min 0 min 80 W/m 12,9 km/h (3 Bft) 96,23 %
25.09.2023 09:06 12,9 C 12,8 C 8,9 C 86 % 1023,4 hPa 0,0 l/m 0 min 0 min 83 W/m 16,1 km/h (3 Bft) 95,74 %
25.09.2023 09:08 13,0 C 12,8 C 8,9 C 86 % 1023,4 hPa 0,0 l/m 0 min 0 min 85 W/m 16,1 km/h (3 Bft) 97,14 %
25.09.2023 09:10 13,1 C 12,8 C 8,9 C 85 % 1023,4 hPa 0,0 l/m 0 min 0 min 86 W/m 19,3 km/h (3 Bft) 98,28 %
25.09.2023 09:12 13,1 C 12,8 C 9,4 C 85 % 1023,4 hPa 0,0 l/m 0 min 0 min 86 W/m 9,7 km/h (2 Bft) 100,00 %
25.09.2023 09:14 13,1 C 13,3 C 9,4 C 85 % 1023,4 hPa 0,0 l/m 0 min 0 min 82 W/m 12,9 km/h (3 Bft) 97,87 %
25.09.2023 09:16 13,2 C 13,3 C 9,4 C 85 % 1023,4 hPa 0,0 l/m 0 min 0 min 83 W/m 16,1 km/h (3 Bft) 97,87 %
25.09.2023 09:18 13,2 C 13,3 C 9,4 C 85 % 1023,4 hPa 0,0 l/m 0 min 0 min 79 W/m 12,9 km/h (3 Bft) 100,00 %
25.09.2023 09:20 13,3 C 13,3 C 9,4 C 85 % 1023,4 hPa 0,0 l/m 0 min 0 min 81 W/m 12,9 km/h (3 Bft) 100,00 %
25.09.2023 09:22 13,4 C 13,3 C 9,4 C 84 % 1023,4 hPa 0,0 l/m 0 min 0 min 79 W/m 12,9 km/h (3 Bft) 97,87 %
25.09.2023 09:24 13,4 C 13,3 C 9,4 C 84 % 1023,4 hPa 0,0 l/m 0 min 0 min 80 W/m 6,4 km/h (2 Bft) 100,00 %
25.09.2023 09:26 13,5 C 13,3 C 9,4 C 84 % 1023,4 hPa 0,0 l/m 0 min 0 min 80 W/m 16,1 km/h (3 Bft) 100,00 %
25.09.2023 09:28 13,6 C 13,3 C 9,4 C 84 % 1023,4 hPa 0,0 l/m 0 min 0 min 80 W/m 16,1 km/h (3 Bft) 97,87 %
25.09.2023 09:30 13,6 C 13,3 C 9,4 C 84 % 1023,4 hPa 0,0 l/m 0 min 0 min 79 W/m 12,9 km/h (3 Bft) 100,00 %
25.09.2023 09:32 13,7 C 13,3 C 9,4 C 84 % 1023,5 hPa 0,0 l/m 0 min 0 min 83 W/m 12,9 km/h (3 Bft) 100,00 %
25.09.2023 09:34 13,7 C 13,3 C 9,4 C 83 % 1023,5 hPa 0,0 l/m 0 min 0 min 84 W/m 12,9 km/h (3 Bft) 97,87 %
25.09.2023 09:36 13,8 C 13,9 C 9,4 C 83 % 1023,5 hPa 0,0 l/m 0 min 0 min 85 W/m 12,9 km/h (3 Bft) 97,87 %
25.09.2023 09:38 13,8 C 13,9 C 9,4 C 83 % 1023,4 hPa 0,0 l/m 0 min 0 min 86 W/m 12,9 km/h (3 Bft) 97,87 %
25.09.2023 09:40 13,8 C 13,9 C 9,4 C 83 % 1023,5 hPa 0,0 l/m 0 min 0 min 87 W/m 12,9 km/h (3 Bft) 97,83 %
25.09.2023 09:42 13,9 C 13,9 C 10,0 C 83 % 1023,5 hPa 0,0 l/m 0 min 0 min 86 W/m 19,3 km/h (3 Bft) 97,87 %
25.09.2023 09:44 13,9 C 13,9 C 10,0 C 83 % 1023,6 hPa 0,0 l/m 0 min 0 min 88 W/m 16,1 km/h (3 Bft) 97,87 %
25.09.2023 09:46 14,0 C 13,9 C 10,0 C 83 % 1023,6 hPa 0,0 l/m 0 min 0 min 94 W/m 19,3 km/h (3 Bft) 97,87 %
25.09.2023 09:48 14,1 C 13,9 C 10,0 C 83 % 1023,6 hPa 0,0 l/m 0 min 0 min 123 W/m 12,9 km/h (3 Bft) 97,87 %
25.09.2023 09:50 14,1 C 14,4 C 10,0 C 83 % 1023,5 hPa 0,0 l/m 0 min 0 min 175 W/m 16,1 km/h (3 Bft) 95,74 %
25.09.2023 09:52 14,2 C 14,4 C 10,0 C 83 % 1023,5 hPa 0,0 l/m 2 min 0 min 200 W/m 12,9 km/h (3 Bft) 97,87 %
25.09.2023 09:54 14,3 C 14,4 C 10,0 C 82 % 1023,5 hPa 0,0 l/m 0 min 0 min 136 W/m 19,3 km/h (3 Bft) 98,15 %
25.09.2023 09:56 14,3 C 14,4 C 10,0 C 82 % 1023,5 hPa 0,0 l/m 0 min 0 min 124 W/m 16,1 km/h (3 Bft) 95,74 %
25.09.2023 09:58 14,3 C 14,4 C 10,0 C 82 % 1023,6 hPa 0,0 l/m 0 min 0 min 110 W/m 12,9 km/h (3 Bft) 100,00 %
25.09.2023 10:00 14,3 C 14,4 C 10,0 C 81 % 1023,6 hPa 0,0 l/m 0 min 0 min 113 W/m 19,3 km/h (3 Bft) 97,87 %
25.09.2023 10:02 14,3 C 14,4 C 10,0 C 81 % 1023,6 hPa 0,0 l/m 0 min 0 min 138 W/m 12,9 km/h (3 Bft) 97,87 %
25.09.2023 10:04 14,4 C 14,4 C 10,0 C 81 % 1023,6 hPa 0,0 l/m 0 min 0 min 151 W/m 12,9 km/h (3 Bft) 95,83 %
25.09.2023 10:06 14,4 C 14,4 C 10,6 C 81 % 1023,6 hPa 0,0 l/m 0 min 0 min 180 W/m 16,1 km/h (3 Bft) 98,28 %
25.09.2023 10:08 14,5 C 14,4 C 10,6 C 81 % 1023,6 hPa 0,0 l/m 0 min 0 min 172 W/m 6,4 km/h (2 Bft) 100,00 %
25.09.2023 10:10 14,6 C 15,0 C 10,6 C 81 % 1023,7 hPa 0,0 l/m 0 min 0 min 167 W/m 12,9 km/h (3 Bft) 98,31 %
25.09.2023 10:12 14,7 C 15,0 C 10,6 C 81 % 1023,6 hPa 0,0 l/m 0 min 0 min 143 W/m 12,9 km/h (3 Bft) 100,00 %
25.09.2023 10:14 14,7 C 15,0 C 10,6 C 81 % 1023,6 hPa 0,0 l/m 0 min 0 min 166 W/m 12,9 km/h (3 Bft) 100,00 %
25.09.2023 10:16 14,8 C 15,0 C 10,6 C 80 % 1023,6 hPa 0,0 l/m 0 min 0 min 174 W/m 19,3 km/h (3 Bft) 100,00 %
25.09.2023 10:18 14,8 C 15,0 C 10,6 C 80 % 1023,6 hPa 0,0 l/m 0 min 0 min 173 W/m 22,5 km/h (4 Bft) 97,87 %
25.09.2023 10:20 14,9 C 15,0 C 10,6 C 79 % 1023,6 hPa 0,0 l/m 0 min 0 min 178 W/m 19,3 km/h (3 Bft) 97,83 %
25.09.2023 10:22 15,0 C 15,0 C 10,6 C 79 % 1023,6 hPa 0,0 l/m 0 min 0 min 176 W/m 12,9 km/h (3 Bft) 95,74 %
25.09.2023 10:24 15,1 C 15,0 C 11,1 C 79 % 1023,5 hPa 0,0 l/m 0 min 0 min 172 W/m 16,1 km/h (3 Bft) 97,87 %
25.09.2023 10:26 15,1 C 15,0 C 11,1 C 79 % 1023,5 hPa 0,0 l/m 0 min 0 min 167 W/m 12,9 km/h (3 Bft) 97,87 %
25.09.2023 10:28 15,1 C 15,6 C 11,1 C 79 % 1023,5 hPa 0,0 l/m 0 min 0 min 170 W/m 6,4 km/h (2 Bft) 97,87 %
25.09.2023 10:30 15,2 C 15,6 C 11,1 C 79 % 1023,4 hPa 0,0 l/m 0 min 0 min 174 W/m 12,9 km/h (3 Bft) 97,14 %
25.09.2023 10:32 15,3 C 15,6 C 11,1 C 79 % 1023,4 hPa 0,0 l/m 0 min 0 min 169 W/m 12,9 km/h (3 Bft) 98,31 %
25.09.2023 10:34 15,3 C 15,6 C 11,1 C 79 % 1023,5 hPa 0,0 l/m 0 min 0 min 175 W/m 6,4 km/h (2 Bft) 54,55 %
25.09.2023 10:36 15,4 C 15,6 C 11,1 C 79 % 1023,5 hPa 0,0 l/m 0 min 0 min 167 W/m 16,1 km/h (3 Bft) 97,22 %
25.09.2023 10:38 15,4 C 15,6 C 11,1 C 79 % 1023,5 hPa 0,0 l/m 0 min 0 min 166 W/m 16,1 km/h (3 Bft) 97,83 %
25.09.2023 10:40 15,4 C 15,6 C 11,1 C 79 % 1023,5 hPa 0,0 l/m 0 min 0 min 170 W/m 22,5 km/h (4 Bft) 97,87 %
25.09.2023 10:42 15,5 C 15,6 C 11,1 C 78 % 1023,5 hPa 0,0 l/m 0 min 0 min 209 W/m 19,3 km/h (3 Bft) 95,74 %
25.09.2023 10:44 15,6 C 15,6 C 11,1 C 78 % 1023,5 hPa 0,0 l/m 0 min 0 min 211 W/m 16,1 km/h (3 Bft) 95,92 %
25.09.2023 10:46 15,6 C 15,6 C 11,1 C 77 % 1023,5 hPa 0,0 l/m 0 min 0 min 195 W/m 22,5 km/h (4 Bft) 95,74 %
25.09.2023 10:48 15,6 C 15,6 C 11,1 C 78 % 1023,4 hPa 0,0 l/m 0 min 0 min 196 W/m 12,9 km/h (3 Bft) 97,87 %
25.09.2023 10:50 15,7 C 16,1 C 11,7 C 78 % 1023,5 hPa 0,0 l/m 0 min 0 min 188 W/m 22,5 km/h (4 Bft) 97,87 %
25.09.2023 10:52 15,8 C 16,1 C 11,7 C 77 % 1023,4 hPa 0,0 l/m 0 min 0 min 186 W/m 19,3 km/h (3 Bft) 97,83 %
25.09.2023 10:54 15,8 C 16,1 C 11,7 C 77 % 1023,5 hPa 0,0 l/m 0 min 0 min 197 W/m 16,1 km/h (3 Bft) 98,21 %
25.09.2023 10:56 15,9 C 16,7 C 11,7 C 77 % 1023,5 hPa 0,0 l/m 0 min 0 min 178 W/m 16,1 km/h (3 Bft) 97,87 %
25.09.2023 10:58 15,9 C 16,7 C 11,7 C 77 % 1023,4 hPa 0,0 l/m 0 min 0 min 187 W/m 25,7 km/h (4 Bft) 91,49 %
25.09.2023 11:00 16,0 C 16,7 C 11,7 C 77 % 1023,4 hPa 0,0 l/m 0 min 0 min 176 W/m 12,9 km/h (3 Bft) 97,87 %
25.09.2023 11:02 16,1 C 16,7 C 11,7 C 76 % 1023,4 hPa 0,0 l/m 0 min 0 min 194 W/m 19,3 km/h (3 Bft) 100,00 %
25.09.2023 11:04 16,1 C 16,7 C 11,7 C 76 % 1023,4 hPa 0,0 l/m 0 min 0 min 176 W/m 16,1 km/h (3 Bft) 97,62 %
25.09.2023 11:08 16,2 C 17,2 C 12,2 C 75 % 1023,4 hPa 0,0 l/m 0 min 0 min 191 W/m 16,1 km/h (3 Bft) 98,92 %
25.09.2023 11:10 16,3 C 17,2 C 12,2 C 75 % 1023,4 hPa 0,0 l/m 0 min 0 min 185 W/m 19,3 km/h (3 Bft) 100,00 %
25.09.2023 11:12 16,4 C 17,2 C 12,2 C 75 % 1023,4 hPa 0,0 l/m 0 min 0 min 198 W/m 22,5 km/h (4 Bft) 100,00 %
25.09.2023 11:14 16,4 C 17,8 C 12,2 C 74 % 1023,5 hPa 0,0 l/m 0 min 0 min 205 W/m 12,9 km/h (3 Bft) 97,87 %
25.09.2023 11:16 16,5 C 17,8 C 12,2 C 74 % 1023,4 hPa 0,0 l/m 0 min 0 min 205 W/m 19,3 km/h (3 Bft) 97,87 %
25.09.2023 11:18 16,6 C 17,8 C 12,2 C 74 % 1023,4 hPa 0,0 l/m 2 min 0 min 304 W/m 12,9 km/h (3 Bft) 97,87 %
25.09.2023 11:20 16,6 C 18,3 C 12,8 C 74 % 1023,4 hPa 0,0 l/m 2 min 0 min 317 W/m 12,9 km/h (3 Bft) 95,74 %
25.09.2023 11:22 16,7 C 18,3 C 12,8 C 73 % 1023,5 hPa 0,0 l/m 2 min 0 min 319 W/m 12,9 km/h (3 Bft) 97,83 %
25.09.2023 11:24 16,7 C 18,3 C 12,8 C 73 % 1023,5 hPa 0,0 l/m 2 min 0 min 273 W/m 16,1 km/h (3 Bft) 97,87 %
25.09.2023 11:26 16,8 C 18,9 C 12,8 C 73 % 1023,4 hPa 0,0 l/m 2 min 0 min 287 W/m 12,9 km/h (3 Bft) 95,74 %
25.09.2023 11:28 16,8 C 18,3 C 12,8 C 72 % 1023,4 hPa 0,0 l/m 2 min 0 min 266 W/m 19,3 km/h (3 Bft) 95,74 %
25.09.2023 11:30 16,9 C 18,9 C 13,3 C 72 % 1023,4 hPa 0,0 l/m 2 min 0 min 320 W/m 12,9 km/h (3 Bft) 95,74 %
25.09.2023 11:32 16,9 C 19,4 C 13,9 C 72 % 1023,3 hPa 0,0 l/m 2 min 0 min 272 W/m 12,9 km/h (3 Bft) 97,87 %
25.09.2023 11:34 17,1 C 20,0 C 14,4 C 72 % 1023,3 hPa 0,0 l/m 2 min 0 min 338 W/m 16,1 km/h (3 Bft) 97,83 %
25.09.2023 11:36 17,2 C 20,6 C 14,4 C 73 % 1023,4 hPa 0,0 l/m 2 min 0 min 433 W/m 12,9 km/h (3 Bft) 97,87 %
25.09.2023 11:38 17,2 C 21,1 C 15,0 C 72 % 1023,3 hPa 0,0 l/m 2 min 0 min 352 W/m 12,9 km/h (3 Bft) 95,74 %
25.09.2023 11:40 17,3 C 22,2 C 15,6 C 72 % 1023,3 hPa 0,0 l/m 2 min 0 min 421 W/m 16,1 km/h (3 Bft) 95,74 %
25.09.2023 11:42 17,4 C 22,2 C 15,6 C 72 % 1023,3 hPa 0,0 l/m 2 min 0 min 455 W/m 12,9 km/h (3 Bft) 97,87 %
25.09.2023 11:44 17,5 C 22,8 C 16,1 C 72 % 1023,3 hPa 0,0 l/m 2 min 0 min 450 W/m 12,9 km/h (3 Bft) 95,74 %
25.09.2023 11:46 17,6 C 22,8 C 16,1 C 72 % 1023,2 hPa 0,0 l/m 2 min 0 min 486 W/m 12,9 km/h (3 Bft) 93,62 %
25.09.2023 11:48 17,7 C 23,9 C 16,1 C 72 % 1023,2 hPa 0,0 l/m 2 min 0 min 535 W/m 6,4 km/h (2 Bft) 95,74 %
25.09.2023 11:50 17,8 C 24,4 C 16,7 C 73 % 1023,2 hPa 0,0 l/m 2 min 0 min 535 W/m 12,9 km/h (3 Bft) 95,74 %
25.09.2023 11:52 17,9 C 23,3 C 16,7 C 71 % 1023,1 hPa 0,0 l/m 2 min 0 min 542 W/m 19,3 km/h (3 Bft) 95,65 %
25.09.2023 11:54 17,9 C 22,8 C 16,7 C 71 % 1023,1 hPa 0,0 l/m 2 min 0 min 527 W/m 12,9 km/h (3 Bft) 95,65 %
25.09.2023 11:56 18,1 C 22,8 C 16,7 C 70 % 1023,1 hPa 0,0 l/m 2 min 0 min 532 W/m 16,1 km/h (3 Bft) 93,62 %
25.09.2023 11:58 18,1 C 22,2 C 16,7 C 70 % 1023,1 hPa 0,0 l/m 2 min 0 min 563 W/m 16,1 km/h (3 Bft) 95,83 %
25.09.2023 12:00 18,2 C 22,2 C 16,1 C 70 % 1023,1 hPa 0,0 l/m 2 min 0 min 587 W/m 12,9 km/h (3 Bft) 95,12 %
25.09.2023 12:02 18,2 C 21,7 C 16,1 C 69 % 1023,1 hPa 0,0 l/m 2 min 0 min 586 W/m 12,9 km/h (3 Bft) 93,62 %
25.09.2023 12:04 18,3 C 22,2 C 15,6 C 70 % 1023,0 hPa 0,0 l/m 2 min 0 min 568 W/m 6,4 km/h (2 Bft) 95,24 %
25.09.2023 12:08 18,4 C 20,6 C 15,0 C 69 % 1022,9 hPa 0,0 l/m 4 min 0 min 413 W/m 19,3 km/h (3 Bft) 95,15 %
25.09.2023 12:10 18,6 C 20,0 C 15,0 C 69 % 1022,9 hPa 0,0 l/m 2 min 0 min 464 W/m 6,4 km/h (2 Bft) 95,74 %
25.09.2023 12:12 18,6 C 19,4 C 15,0 C 69 % 1022,9 hPa 0,0 l/m 2 min 0 min 483 W/m 16,1 km/h (3 Bft) 91,49 %
25.09.2023 12:16 18,7 C 19,4 C 14,4 C 68 % 1022,8 hPa 0,0 l/m 4 min 0 min 322 W/m 16,1 km/h (3 Bft) 97,87 %
25.09.2023 12:18 18,8 C 18,9 C 14,4 C 68 % 1022,8 hPa 0,0 l/m 0 min 0 min 211 W/m 12,9 km/h (3 Bft) 100,00 %
25.09.2023 12:20 18,8 C 18,9 C 14,4 C 68 % 1022,7 hPa 0,0 l/m 0 min 0 min 229 W/m 12,9 km/h (3 Bft) 97,83 %
25.09.2023 12:22 18,9 C 19,4 C 14,4 C 69 % 1022,7 hPa 0,0 l/m 0 min 0 min 177 W/m 16,1 km/h (3 Bft) 97,87 %
25.09.2023 12:24 18,9 C 18,9 C 14,4 C 68 % 1022,7 hPa 0,0 l/m 0 min 0 min 170 W/m 16,1 km/h (3 Bft) 97,87 %
25.09.2023 12:26 18,9 C 18,9 C 14,4 C 68 % 1022,7 hPa 0,0 l/m 0 min 0 min 188 W/m 19,3 km/h (3 Bft) 97,87 %
25.09.2023 12:28 19,0 C 18,9 C 14,4 C 69 % 1022,7 hPa 0,0 l/m 0 min 0 min 174 W/m 9,7 km/h (2 Bft) 97,87 %
25.09.2023 12:30 19,1 C 18,9 C 14,4 C 68 % 1022,7 hPa 0,0 l/m 0 min 0 min 164 W/m 16,1 km/h (3 Bft) 100,00 %
25.09.2023 12:32 19,1 C 18,9 C 14,4 C 68 % 1022,8 hPa 0,0 l/m 0 min 0 min 161 W/m 12,9 km/h (3 Bft) 100,00 %
25.09.2023 12:34 19,1 C 19,4 C 14,4 C 68 % 1022,8 hPa 0,0 l/m 0 min 0 min 156 W/m 12,9 km/h (3 Bft) 100,00 %
25.09.2023 12:36 19,1 C 18,9 C 14,4 C 68 % 1022,7 hPa 0,0 l/m 0 min 0 min 151 W/m 12,9 km/h (3 Bft) 100,00 %
25.09.2023 12:38 19,2 C 18,9 C 14,4 C 67 % 1022,8 hPa 0,0 l/m 0 min 0 min 150 W/m 19,3 km/h (3 Bft) 100,00 %
25.09.2023 12:40 19,2 C 19,4 C 14,4 C 68 % 1022,8 hPa 0,0 l/m 0 min 0 min 152 W/m 12,9 km/h (3 Bft) 100,00 %
25.09.2023 12:42 19,2 C 19,4 C 14,4 C 68 % 1022,8 hPa 0,0 l/m 0 min 0 min 153 W/m 16,1 km/h (3 Bft) 97,87 %
25.09.2023 12:44 19,2 C 19,4 C 14,4 C 67 % 1022,8 hPa 0,0 l/m 0 min 0 min 152 W/m 19,3 km/h (3 Bft) 100,00 %
25.09.2023 12:46 19,3 C 19,4 C 14,4 C 67 % 1022,8 hPa 0,0 l/m 0 min 0 min 151 W/m 9,7 km/h (2 Bft) 100,00 %
25.09.2023 12:48 19,3 C 19,4 C 14,4 C 67 % 1022,8 hPa 0,0 l/m 0 min 0 min 154 W/m 6,4 km/h (2 Bft) 97,87 %
25.09.2023 12:50 19,4 C 19,4 C 14,4 C 68 % 1022,8 hPa 0,0 l/m 0 min 0 min 157 W/m 6,4 km/h (2 Bft) 97,83 %
25.09.2023 12:52 19,4 C 19,4 C 14,4 C 67 % 1022,8 hPa 0,0 l/m 0 min 0 min 157 W/m 6,4 km/h (2 Bft) 97,87 %
25.09.2023 12:54 19,4 C 19,4 C 15,0 C 67 % 1022,8 hPa 0,0 l/m 0 min 0 min 153 W/m 16,1 km/h (3 Bft) 97,83 %
25.09.2023 12:56 19,4 C 18,9 C 14,4 C 67 % 1022,8 hPa 0,0 l/m 0 min 0 min 150 W/m 12,9 km/h (3 Bft) 93,62 %
25.09.2023 12:58 19,4 C 19,4 C 14,4 C 67 % 1022,8 hPa 0,0 l/m 0 min 0 min 147 W/m 9,7 km/h (2 Bft) 100,00 %
25.09.2023 13:00 19,5 C 19,4 C 14,4 C 68 % 1022,7 hPa 0,0 l/m 0 min 0 min 145 W/m 12,9 km/h (3 Bft) 95,74 %
25.09.2023 13:02 19,5 C 19,4 C 15,0 C 67 % 1022,7 hPa 0,0 l/m 0 min 0 min 143 W/m 12,9 km/h (3 Bft) 97,87 %
25.09.2023 13:04 19,6 C 19,4 C 15,0 C 67 % 1022,8 hPa 0,0 l/m 0 min 0 min 141 W/m 12,9 km/h (3 Bft) 95,24 %
25.09.2023 13:08 19,6 C 19,4 C 14,4 C 68 % 1022,8 hPa 0,0 l/m 0 min 0 min 137 W/m 12,9 km/h (3 Bft) 97,87 %
25.09.2023 13:10 19,6 C 19,4 C 15,0 C 66 % 1022,8 hPa 0,0 l/m 0 min 0 min 135 W/m 19,3 km/h (3 Bft) 97,87 %
25.09.2023 13:12 19,7 C 19,4 C 15,0 C 66 % 1022,7 hPa 0,0 l/m 0 min 0 min 135 W/m 12,9 km/h (3 Bft) 95,74 %
25.09.2023 13:14 19,7 C 19,4 C 15,0 C 67 % 1022,7 hPa 0,0 l/m 0 min 0 min 137 W/m 12,9 km/h (3 Bft) 97,83 %
25.09.2023 13:16 19,7 C 20,0 C 15,0 C 67 % 1022,7 hPa 0,0 l/m 0 min 0 min 140 W/m 6,4 km/h (2 Bft) 97,87 %
25.09.2023 13:18 19,8 C 20,0 C 15,0 C 67 % 1022,7 hPa 0,0 l/m 0 min 0 min 142 W/m 6,4 km/h (2 Bft) 95,74 %
25.09.2023 13:20 19,8 C 20,0 C 15,0 C 66 % 1022,8 hPa 0,0 l/m 0 min 0 min 144 W/m 16,1 km/h (3 Bft) 95,74 %
25.09.2023 13:22 19,8 C 20,0 C 15,0 C 65 % 1022,8 hPa 0,0 l/m 0 min 0 min 149 W/m 16,1 km/h (3 Bft) 97,87 %
25.09.2023 13:24 19,9 C 19,4 C 15,0 C 65 % 1022,9 hPa 0,0 l/m 0 min 0 min 153 W/m 16,1 km/h (3 Bft) 97,87 %
25.09.2023 13:26 19,9 C 20,0 C 15,0 C 65 % 1022,9 hPa 0,0 l/m 0 min 0 min 164 W/m 12,9 km/h (3 Bft) 97,87 %
25.09.2023 13:28 19,9 C 19,4 C 15,0 C 65 % 1023,0 hPa 0,0 l/m 0 min 0 min 162 W/m 12,9 km/h (3 Bft) 97,83 %
25.09.2023 13:30 19,9 C 19,4 C 15,0 C 65 % 1022,9 hPa 0,0 l/m 0 min 0 min 161 W/m 12,9 km/h (3 Bft) 97,87 %
25.09.2023 13:32 19,9 C 19,4 C 15,0 C 65 % 1022,9 hPa 0,0 l/m 0 min 0 min 163 W/m 12,9 km/h (3 Bft) 100,00 %
25.09.2023 13:34 19,9 C 20,0 C 15,0 C 66 % 1022,9 hPa 0,0 l/m 0 min 0 min 170 W/m 12,9 km/h (3 Bft) 100,00 %
25.09.2023 13:36 20,0 C 20,0 C 15,0 C 65 % 1022,9 hPa 0,0 l/m 0 min 0 min 175 W/m 12,9 km/h (3 Bft) 95,74 %
25.09.2023 13:38 20,1 C 20,0 C 15,0 C 65 % 1022,9 hPa 0,0 l/m 0 min 0 min 181 W/m 6,4 km/h (2 Bft) 97,87 %
25.09.2023 13:40 20,1 C 20,0 C 15,0 C 65 % 1022,9 hPa 0,0 l/m 0 min 0 min 208 W/m 6,4 km/h (2 Bft) 97,87 %
25.09.2023 13:42 20,1 C 20,6 C 15,0 C 65 % 1022,8 hPa 0,0 l/m 0 min 0 min 210 W/m 6,4 km/h (2 Bft) 100,00 %
25.09.2023 13:44 20,2 C 20,6 C 15,0 C 66 % 1022,9 hPa 0,0 l/m 0 min 0 min 264 W/m 9,7 km/h (2 Bft) 97,87 %
25.09.2023 13:46 20,2 C 20,6 C 15,0 C 65 % 1022,8 hPa 0,0 l/m 0 min 0 min 289 W/m 6,4 km/h (2 Bft) 95,74 %
25.09.2023 13:48 20,2 C 20,0 C 15,0 C 65 % 1022,9 hPa 0,0 l/m 0 min 0 min 273 W/m 12,9 km/h (3 Bft) 97,87 %
25.09.2023 13:50 20,2 C 20,0 C 15,0 C 65 % 1022,8 hPa 0,0 l/m 2 min 0 min 484 W/m 12,9 km/h (3 Bft) 97,87 %
25.09.2023 13:52 20,2 C 20,0 C 15,0 C 65 % 1022,8 hPa 0,0 l/m 2 min 0 min 525 W/m 12,9 km/h (3 Bft) 95,74 %
25.09.2023 13:54 20,3 C 20,6 C 15,0 C 66 % 1022,8 hPa 0,0 l/m 2 min 0 min 588 W/m 6,4 km/h (2 Bft) 97,87 %
25.09.2023 13:56 20,3 C 20,6 C 15,0 C 66 % 1022,7 hPa 0,0 l/m 2 min 0 min 570 W/m 9,7 km/h (2 Bft) 95,74 %
25.09.2023 13:58 20,4 C 20,6 C 15,0 C 65 % 1022,8 hPa 0,0 l/m 2 min 0 min 574 W/m 12,9 km/h (3 Bft) 97,83 %
25.09.2023 14:00 20,4 C 20,6 C 15,0 C 65 % 1022,8 hPa 0,0 l/m 2 min 0 min 558 W/m 6,4 km/h (2 Bft) 97,87 %
25.09.2023 14:02 20,4 C 20,6 C 15,6 C 65 % 1022,8 hPa 0,0 l/m 2 min 0 min 637 W/m 6,4 km/h (2 Bft) 97,87 %
25.09.2023 14:04 20,5 C 21,1 C 15,6 C 65 % 1022,7 hPa 0,0 l/m 2 min 0 min 605 W/m 6,4 km/h (2 Bft) 95,65 %
25.09.2023 14:08 20,7 C 21,7 C 15,6 C 64 % 1022,6 hPa 0,0 l/m 4 min 0 min 579 W/m 12,9 km/h (3 Bft) 97,89 %
25.09.2023 14:10 20,7 C 22,2 C 15,6 C 64 % 1022,7 hPa 0,0 l/m 2 min 0 min 593 W/m 6,4 km/h (2 Bft) 97,87 %
25.09.2023 14:12 20,8 C 22,8 C 15,6 C 63 % 1022,7 hPa 0,0 l/m 2 min 0 min 626 W/m 9,7 km/h (2 Bft) 97,87 %
25.09.2023 14:14 20,9 C 23,3 C 15,6 C 63 % 1022,7 hPa 0,0 l/m 2 min 0 min 636 W/m 6,4 km/h (2 Bft) 97,87 %
25.09.2023 14:16 21,0 C 22,8 C 15,6 C 62 % 1022,6 hPa 0,0 l/m 2 min 0 min 663 W/m 6,4 km/h (2 Bft) 95,74 %
25.09.2023 14:18 21,1 C 22,8 C 15,6 C 63 % 1022,6 hPa 0,0 l/m 2 min 0 min 689 W/m 6,4 km/h (2 Bft) 93,48 %
25.09.2023 14:20 21,1 C 23,3 C 15,6 C 63 % 1022,6 hPa 0,0 l/m 2 min 0 min 658 W/m 9,7 km/h (2 Bft) 97,87 %
25.09.2023 14:22 21,2 C 24,4 C 15,6 C 63 % 1022,6 hPa 0,0 l/m 2 min 0 min 720 W/m 3,2 km/h (1 Bft) 97,87 %
25.09.2023 14:24 21,3 C 25,0 C 15,6 C 62 % 1022,6 hPa 0,0 l/m 2 min 0 min 659 W/m 12,9 km/h (3 Bft) 97,87 %
25.09.2023 14:26 21,4 C 24,4 C 15,6 C 61 % 1022,6 hPa 0,0 l/m 2 min 0 min 526 W/m 22,5 km/h (4 Bft) 100,00 %
25.09.2023 14:28 21,4 C 23,9 C 15,6 C 62 % 1022,6 hPa 0,0 l/m 2 min 0 min 594 W/m 12,9 km/h (3 Bft) 100,00 %
25.09.2023 14:30 21,4 C 23,9 C 15,6 C 62 % 1022,6 hPa 0,0 l/m 2 min 0 min 564 W/m 6,4 km/h (2 Bft) 100,00 %
25.09.2023 14:32 21,5 C 23,9 C 15,6 C 62 % 1022,6 hPa 0,0 l/m 2 min 0 min 561 W/m 6,4 km/h (2 Bft) 97,83 %
25.09.2023 14:34 21,6 C 23,3 C 15,6 C 61 % 1022,6 hPa 0,0 l/m 2 min 0 min 602 W/m 9,7 km/h (2 Bft) 100,00 %
25.09.2023 14:36 21,6 C 22,8 C 15,6 C 61 % 1022,6 hPa 0,0 l/m 2 min 0 min 574 W/m 12,9 km/h (3 Bft) 95,74 %
25.09.2023 14:38 21,7 C 22,8 C 15,6 C 62 % 1022,7 hPa 0,0 l/m 2 min 0 min 577 W/m 9,7 km/h (2 Bft) 100,00 %
25.09.2023 14:40 21,7 C 22,2 C 15,6 C 62 % 1022,7 hPa 0,0 l/m 2 min 0 min 543 W/m 12,9 km/h (3 Bft) 100,00 %
25.09.2023 14:42 21,8 C 22,2 C 15,6 C 61 % 1022,7 hPa 0,0 l/m 2 min 0 min 499 W/m 9,7 km/h (2 Bft) 97,87 %
25.09.2023 14:44 21,8 C 22,2 C 15,6 C 60 % 1022,7 hPa 0,0 l/m 2 min 0 min 526 W/m 12,9 km/h (3 Bft) 100,00 %
25.09.2023 14:46 21,8 C 22,2 C 16,1 C 60 % 1022,7 hPa 0,0 l/m 2 min 0 min 514 W/m 3,2 km/h (1 Bft) 97,87 %
25.09.2023 14:48 21,8 C 21,7 C 16,1 C 59 % 1022,7 hPa 0,0 l/m 2 min 0 min 524 W/m 6,4 km/h (2 Bft) 97,83 %
25.09.2023 14:50 21,8 C 21,7 C 16,1 C 58 % 1022,7 hPa 0,0 l/m 2 min 0 min 502 W/m 9,7 km/h (2 Bft) 95,74 %
25.09.2023 14:52 21,8 C 21,7 C 16,1 C 57 % 1022,7 hPa 0,0 l/m 2 min 0 min 498 W/m 6,4 km/h (2 Bft) 93,62 %
25.09.2023 14:54 21,9 C 21,7 C 16,1 C 58 % 1022,7 hPa 0,0 l/m 2 min 0 min 560 W/m 6,4 km/h (2 Bft) 97,83 %
25.09.2023 14:56 21,9 C 21,7 C 16,1 C 58 % 1022,7 hPa 0,0 l/m 2 min 0 min 569 W/m 16,1 km/h (3 Bft) 97,87 %
25.09.2023 14:58 21,9 C 21,7 C 16,1 C 59 % 1022,7 hPa 0,0 l/m 2 min 0 min 527 W/m 6,4 km/h (2 Bft) 97,87 %
25.09.2023 15:00 21,9 C 21,1 C 16,1 C 57 % 1022,7 hPa 0,0 l/m 2 min 0 min 555 W/m 6,4 km/h (2 Bft) 97,87 %
25.09.2023 15:02 21,9 C 21,1 C 16,1 C 56 % 1022,7 hPa 0,0 l/m 2 min 0 min 528 W/m 6,4 km/h (2 Bft) 97,87 %
25.09.2023 15:04 22,0 C 21,7 C 16,1 C 57 % 1022,7 hPa 0,0 l/m 2 min 0 min 514 W/m 9,7 km/h (2 Bft) 97,62 %
25.09.2023 15:08 22,1 C 21,7 C 16,1 C 57 % 1022,7 hPa 0,0 l/m 4 min 0 min 522 W/m 12,9 km/h (3 Bft) 97,87 %
25.09.2023 15:10 22,1 C 21,7 C 16,1 C 57 % 1022,8 hPa 0,0 l/m 2 min 0 min 494 W/m 6,4 km/h (2 Bft) 97,87 %
25.09.2023 15:12 22,1 C 21,7 C 16,1 C 58 % 1022,8 hPa 0,0 l/m 2 min 0 min 533 W/m 6,4 km/h (2 Bft) 97,83 %
25.09.2023 15:14 22,1 C 21,7 C 16,1 C 58 % 1022,8 hPa 0,0 l/m 2 min 0 min 525 W/m 6,4 km/h (2 Bft) 97,87 %
25.09.2023 15:16 22,1 C 21,7 C 16,1 C 57 % 1022,8 hPa 0,0 l/m 2 min 0 min 484 W/m 6,4 km/h (2 Bft) 95,74 %
25.09.2023 15:18 22,2 C 21,7 C 16,1 C 57 % 1022,8 hPa 0,0 l/m 2 min 0 min 474 W/m 6,4 km/h (2 Bft) 93,62 %
25.09.2023 15:20 22,1 C 21,7 C 16,1 C 58 % 1022,8 hPa 0,0 l/m 2 min 0 min 453 W/m 6,4 km/h (2 Bft) 93,62 %
25.09.2023 15:22 22,1 C 21,7 C 16,1 C 59 % 1022,8 hPa 0,0 l/m 2 min 0 min 515 W/m 6,4 km/h (2 Bft) 95,74 %
25.09.2023 15:24 22,1 C 21,7 C 16,1 C 58 % 1022,7 hPa 0,0 l/m 2 min 0 min 451 W/m 12,9 km/h (3 Bft) 93,62 %
25.09.2023 15:26 22,1 C 21,7 C 16,1 C 58 % 1022,7 hPa 0,0 l/m 2 min 0 min 498 W/m 12,9 km/h (3 Bft) 95,65 %
25.09.2023 15:28 22,1 C 21,7 C 16,1 C 57 % 1022,8 hPa 0,0 l/m 2 min 0 min 597 W/m 6,4 km/h (2 Bft) 93,62 %
25.09.2023 15:30 22,1 C 21,7 C 16,1 C 58 % 1022,7 hPa 0,0 l/m 2 min 0 min 558 W/m 3,2 km/h (1 Bft) 95,74 %
25.09.2023 15:32 22,2 C 22,2 C 16,1 C 57 % 1022,7 hPa 0,0 l/m 2 min 0 min 460 W/m 3,2 km/h (1 Bft) 95,74 %
25.09.2023 15:34 22,2 C 21,7 C 16,1 C 58 % 1022,8 hPa 0,0 l/m 2 min 0 min 479 W/m 6,4 km/h (2 Bft) 95,74 %
25.09.2023 15:36 22,2 C 22,2 C 16,1 C 57 % 1022,8 hPa 0,0 l/m 2 min 0 min 563 W/m 3,2 km/h (1 Bft) 95,74 %
25.09.2023 15:38 22,2 C 21,7 C 16,1 C 56 % 1022,8 hPa 0,0 l/m 2 min 0 min 498 W/m 6,4 km/h (2 Bft) 95,74 %
25.09.2023 15:40 22,2 C 21,7 C 16,1 C 55 % 1022,8 hPa 0,0 l/m 2 min 0 min 451 W/m 6,4 km/h (2 Bft) 93,48 %
25.09.2023 15:42 22,2 C 21,7 C 16,1 C 55 % 1022,8 hPa 0,0 l/m 2 min 0 min 460 W/m 3,2 km/h (1 Bft) 97,87 %
25.09.2023 15:44 22,2 C 21,7 C 16,1 C 56 % 1022,7 hPa 0,0 l/m 2 min 0 min 427 W/m 3,2 km/h (1 Bft) 95,74 %
25.09.2023 15:46 22,2 C 21,7 C 16,1 C 57 % 1022,8 hPa 0,0 l/m 2 min 0 min 381 W/m 3,2 km/h (1 Bft) 95,74 %
25.09.2023 15:48 22,2 C 21,7 C 16,1 C 58 % 1022,7 hPa 0,0 l/m 2 min 0 min 377 W/m 6,4 km/h (2 Bft) 98,18 %
25.09.2023 15:50 22,2 C 21,7 C 16,1 C 58 % 1022,8 hPa 0,0 l/m 2 min 0 min 384 W/m 6,4 km/h (2 Bft) 97,87 %
25.09.2023 15:52 22,2 C 21,7 C 15,6 C 59 % 1022,8 hPa 0,0 l/m 2 min 0 min 423 W/m 3,2 km/h (1 Bft) 95,74 %
25.09.2023 15:54 22,2 C 21,7 C 15,6 C 59 % 1022,8 hPa 0,0 l/m 2 min 0 min 340 W/m 3,2 km/h (1 Bft) 97,83 %
25.09.2023 15:56 22,2 C 21,7 C 15,6 C 59 % 1022,9 hPa 0,0 l/m 2 min 0 min 305 W/m 3,2 km/h (1 Bft) 97,87 %
25.09.2023 15:58 22,1 C 21,1 C 15,6 C 58 % 1022,9 hPa 0,0 l/m 2 min 0 min 340 W/m 3,2 km/h (1 Bft) 97,83 %
25.09.2023 16:00 22,1 C 21,7 C 16,1 C 58 % 1022,9 hPa 0,0 l/m 2 min 0 min 469 W/m 6,4 km/h (2 Bft) 93,62 %
25.09.2023 16:02 22,2 C 21,7 C 16,1 C 59 % 1022,8 hPa 0,0 l/m 2 min 0 min 400 W/m 3,2 km/h (1 Bft) 93,62 %
25.09.2023 16:04 22,2 C 21,7 C 16,1 C 58 % 1022,8 hPa 0,0 l/m 2 min 0 min 429 W/m 3,2 km/h (1 Bft) 97,73 %
25.09.2023 16:08 22,1 C 21,7 C 16,1 C 58 % 1022,7 hPa 0,0 l/m 4 min 0 min 408 W/m 6,4 km/h (2 Bft) 97,85 %
25.09.2023 16:10 22,1 C 21,7 C 16,1 C 58 % 1022,7 hPa 0,0 l/m 2 min 0 min 254 W/m 6,4 km/h (2 Bft) 95,74 %
25.09.2023 16:12 22,1 C 21,7 C 16,1 C 57 % 1022,7 hPa 0,0 l/m 0 min 0 min 203 W/m 6,4 km/h (2 Bft) 97,87 %
25.09.2023 16:14 22,1 C 21,1 C 16,1 C 57 % 1022,7 hPa 0,0 l/m 2 min 0 min 238 W/m 3,2 km/h (1 Bft) 97,87 %
25.09.2023 16:16 22,1 C 21,1 C 16,1 C 60 % 1022,7 hPa 0,0 l/m 2 min 0 min 264 W/m 3,2 km/h (1 Bft) 97,87 %
25.09.2023 16:18 22,1 C 21,1 C 16,1 C 59 % 1022,6 hPa 0,0 l/m 2 min 0 min 257 W/m 3,2 km/h (1 Bft) 97,87 %
25.09.2023 16:20 22,1 C 21,1 C 15,6 C 58 % 1022,7 hPa 0,0 l/m 2 min 0 min 281 W/m 0,0 km/h (0 Bft) 97,83 %
25.09.2023 16:22 22,1 C 21,1 C 16,1 C 58 % 1022,7 hPa 0,0 l/m 2 min 0 min 291 W/m 12,9 km/h (3 Bft) 97,87 %
25.09.2023 16:24 22,1 C 21,1 C 16,1 C 58 % 1022,7 hPa 0,0 l/m 2 min 0 min 324 W/m 6,4 km/h (2 Bft) 97,87 %
25.09.2023 16:26 22,1 C 21,1 C 16,1 C 58 % 1022,7 hPa 0,0 l/m 2 min 0 min 326 W/m 6,4 km/h (2 Bft) 97,87 %
25.09.2023 16:28 22,1 C 21,7 C 16,1 C 59 % 1022,6 hPa 0,0 l/m 2 min 0 min 272 W/m 3,2 km/h (1 Bft) 97,87 %
25.09.2023 16:30 22,0 C 21,1 C 16,1 C 58 % 1022,6 hPa 0,0 l/m 2 min 0 min 358 W/m 3,2 km/h (1 Bft) 97,87 %
25.09.2023 16:32 22,0 C 21,7 C 16,1 C 59 % 1022,6 hPa 0,0 l/m 2 min 0 min 356 W/m 6,4 km/h (2 Bft) 97,87 %
25.09.2023 16:34 21,9 C 21,7 C 16,1 C 57 % 1022,6 hPa 0,0 l/m 2 min 0 min 401 W/m 6,4 km/h (2 Bft) 97,83 %
25.09.2023 16:36 21,9 C 21,7 C 16,1 C 56 % 1022,6 hPa 0,0 l/m 2 min 0 min 360 W/m 3,2 km/h (1 Bft) 97,87 %
25.09.2023 16:38 22,0 C 21,7 C 16,1 C 57 % 1022,6 hPa 0,0 l/m 2 min 0 min 411 W/m 6,4 km/h (2 Bft) 100,00 %
25.09.2023 16:40 22,0 C 21,7 C 16,1 C 57 % 1022,6 hPa 0,0 l/m 2 min 0 min 402 W/m 6,4 km/h (2 Bft) 100,00 %
25.09.2023 16:42 21,9 C 21,7 C 16,1 C 57 % 1022,6 hPa 0,0 l/m 2 min 0 min 367 W/m 6,4 km/h (2 Bft) 97,87 %
25.09.2023 16:44 21,9 C 21,7 C 16,1 C 56 % 1022,6 hPa 0,0 l/m 2 min 0 min 434 W/m 6,4 km/h (2 Bft) 100,00 %
25.09.2023 16:46 21,9 C 21,7 C 16,1 C 57 % 1022,6 hPa 0,0 l/m 2 min 0 min 359 W/m 3,2 km/h (1 Bft) 100,00 %
25.09.2023 16:48 21,9 C 21,7 C 16,1 C 58 % 1022,6 hPa 0,0 l/m 2 min 0 min 426 W/m 3,2 km/h (1 Bft) 100,00 %
25.09.2023 16:50 21,9 C 21,7 C 16,1 C 57 % 1022,6 hPa 0,0 l/m 2 min 0 min 477 W/m 6,4 km/h (2 Bft) 100,00 %
25.09.2023 16:52 22,0 C 21,7 C 16,1 C 57 % 1022,6 hPa 0,0 l/m 2 min 0 min 448 W/m 3,2 km/h (1 Bft) 100,00 %
25.09.2023 16:54 22,0 C 21,7 C 16,1 C 56 % 1022,6 hPa 0,0 l/m 2 min 0 min 428 W/m 0,0 km/h (0 Bft) 100,00 %
25.09.2023 16:56 22,1 C 21,7 C 15,6 C 58 % 1022,6 hPa 0,0 l/m 2 min 0 min 352 W/m 3,2 km/h (1 Bft) 97,87 %
25.09.2023 16:58 22,1 C 21,1 C 15,6 C 59 % 1022,6 hPa 0,0 l/m 2 min 0 min 319 W/m 3,2 km/h (1 Bft) 100,00 %
25.09.2023 17:00 22,1 C 21,1 C 15,6 C 57 % 1022,6 hPa 0,0 l/m 2 min 0 min 354 W/m 3,2 km/h (1 Bft) 100,00 %
25.09.2023 17:02 22,1 C 21,1 C 15,6 C 57 % 1022,5 hPa 0,0 l/m 2 min 0 min 404 W/m 3,2 km/h (1 Bft) 97,87 %
25.09.2023 17:04 22,1 C 21,1 C 15,6 C 56 % 1022,6 hPa 0,0 l/m 2 min 0 min 400 W/m 6,4 km/h (2 Bft) 100,00 %
25.09.2023 17:08 22,1 C 21,7 C 15,6 C 57 % 1022,6 hPa 0,0 l/m 4 min 0 min 386 W/m 3,2 km/h (1 Bft) 100,00 %
25.09.2023 17:10 22,1 C 21,7 C 16,1 C 56 % 1022,6 hPa 0,0 l/m 2 min 0 min 370 W/m 6,4 km/h (2 Bft) 100,00 %
25.09.2023 17:12 22,1 C 22,2 C 16,1 C 55 % 1022,6 hPa 0,0 l/m 2 min 0 min 360 W/m 3,2 km/h (1 Bft) 100,00 %
25.09.2023 17:14 22,1 C 21,7 C 16,1 C 54 % 1022,6 hPa 0,0 l/m 2 min 0 min 350 W/m 6,4 km/h (2 Bft) 100,00 %
25.09.2023 17:16 22,1 C 22,2 C 15,6 C 55 % 1022,6 hPa 0,0 l/m 2 min 0 min 340 W/m 3,2 km/h (1 Bft) 100,00 %
25.09.2023 17:18 22,1 C 22,2 C 15,6 C 56 % 1022,6 hPa 0,0 l/m 2 min 0 min 330 W/m 3,2 km/h (1 Bft) 97,87 %
25.09.2023 17:20 22,0 C 21,7 C 15,6 C 55 % 1022,6 hPa 0,0 l/m 2 min 0 min 321 W/m 6,4 km/h (2 Bft) 100,00 %
25.09.2023 17:22 21,9 C 22,8 C 15,6 C 56 % 1022,6 hPa 0,0 l/m 2 min 0 min 312 W/m 6,4 km/h (2 Bft) 100,00 %
25.09.2023 17:24 22,0 C 23,9 C 15,6 C 58 % 1022,5 hPa 0,0 l/m 2 min 0 min 303 W/m 3,2 km/h (1 Bft) 100,00 %
25.09.2023 17:26 22,1 C 24,4 C 15,6 C 57 % 1022,6 hPa 0,0 l/m 2 min 0 min 295 W/m 3,2 km/h (1 Bft) 100,00 %
25.09.2023 17:28 22,1 C 25,6 C 15,0 C 57 % 1022,5 hPa 0,0 l/m 2 min 0 min 288 W/m 0,0 km/h (0 Bft) 97,87 %
25.09.2023 17:30 22,1 C 25,0 C 15,0 C 58 % 1022,5 hPa 0,0 l/m 2 min 0 min 280 W/m 3,2 km/h (1 Bft) 100,00 %
25.09.2023 17:32 22,1 C 25,0 C 15,0 C 56 % 1022,5 hPa 0,0 l/m 2 min 0 min 273 W/m 3,2 km/h (1 Bft) 100,00 %
25.09.2023 17:34 22,1 C 25,6 C 15,0 C 57 % 1022,5 hPa 0,0 l/m 2 min 0 min 265 W/m 3,2 km/h (1 Bft) 97,87 %
25.09.2023 17:36 22,1 C 25,6 C 15,0 C 58 % 1022,5 hPa 0,0 l/m 2 min 0 min 257 W/m 3,2 km/h (1 Bft) 93,62 %
25.09.2023 17:38 22,1 C 26,1 C 15,0 C 57 % 1022,6 hPa 0,0 l/m 2 min 0 min 250 W/m 3,2 km/h (1 Bft) 95,65 %
25.09.2023 17:40 22,1 C 25,6 C 15,0 C 55 % 1022,5 hPa 0,0 l/m 2 min 0 min 241 W/m 6,4 km/h (2 Bft) 97,87 %
25.09.2023 17:42 22,2 C 26,1 C 15,0 C 56 % 1022,6 hPa 0,0 l/m 2 min 0 min 234 W/m 3,2 km/h (1 Bft) 97,87 %
25.09.2023 17:44 22,2 C 25,6 C 15,0 C 56 % 1022,5 hPa 0,0 l/m 2 min 0 min 226 W/m 3,2 km/h (1 Bft) 97,87 %
25.09.2023 17:46 22,2 C 24,4 C 15,0 C 56 % 1022,5 hPa 0,0 l/m 2 min 0 min 220 W/m 3,2 km/h (1 Bft) 95,74 %
25.09.2023 17:48 22,2 C 23,9 C 15,0 C 57 % 1022,5 hPa 0,0 l/m 2 min 0 min 212 W/m 3,2 km/h (1 Bft) 97,87 %
25.09.2023 17:50 22,3 C 22,8 C 15,0 C 57 % 1022,5 hPa 0,0 l/m 2 min 0 min 205 W/m 6,4 km/h (2 Bft) 97,87 %
25.09.2023 17:52 22,2 C 22,2 C 15,0 C 56 % 1022,6 hPa 0,0 l/m 2 min 0 min 198 W/m 3,2 km/h (1 Bft) 97,83 %
25.09.2023 17:54 22,2 C 22,2 C 15,0 C 57 % 1022,5 hPa 0,0 l/m 2 min 0 min 191 W/m 3,2 km/h (1 Bft) 97,78 %
25.09.2023 17:56 22,2 C 21,7 C 15,0 C 58 % 1022,5 hPa 0,0 l/m 2 min 0 min 184 W/m 3,2 km/h (1 Bft) 93,62 %
25.09.2023 17:58 22,2 C 21,1 C 15,0 C 59 % 1022,5 hPa 0,0 l/m 2 min 0 min 177 W/m 3,2 km/h (1 Bft) 95,74 %
25.09.2023 18:00 22,2 C 20,6 C 15,0 C 58 % 1022,5 hPa 0,0 l/m 2 min 0 min 134 W/m 3,2 km/h (1 Bft) 95,74 %
25.09.2023 18:02 22,2 C 20,6 C 14,4 C 58 % 1022,5 hPa 0,0 l/m 0 min 0 min 99 W/m 3,2 km/h (1 Bft) 95,74 %
25.09.2023 18:04 22,1 C 20,0 C 14,4 C 58 % 1022,5 hPa 0,0 l/m 2 min 0 min 111 W/m 6,4 km/h (2 Bft) 93,18 %
25.09.2023 18:08 22,1 C 20,0 C 14,4 C 58 % 1022,5 hPa 0,0 l/m 4 min 0 min 113 W/m 3,2 km/h (1 Bft) 93,62 %
25.09.2023 18:10 21,9 C 20,0 C 14,4 C 60 % 1022,5 hPa 0,0 l/m 2 min 0 min 132 W/m 3,2 km/h (1 Bft) 95,74 %
25.09.2023 18:12 21,9 C 20,0 C 14,4 C 61 % 1022,5 hPa 0,0 l/m 2 min 0 min 130 W/m 3,2 km/h (1 Bft) 93,62 %
25.09.2023 18:16 21,8 C 20,0 C 14,4 C 60 % 1022,5 hPa 0,0 l/m 4 min 0 min 122 W/m 3,2 km/h (1 Bft) 94,62 %
25.09.2023 18:18 21,8 C 20,0 C 14,4 C 62 % 1022,6 hPa 0,0 l/m 2 min 0 min 114 W/m 3,2 km/h (1 Bft) 95,74 %
25.09.2023 18:20 21,8 C 20,0 C 14,4 C 62 % 1022,5 hPa 0,0 l/m 2 min 0 min 106 W/m 3,2 km/h (1 Bft) 95,74 %
25.09.2023 18:22 21,7 C 20,0 C 14,4 C 61 % 1022,5 hPa 0,0 l/m 2 min 0 min 104 W/m 3,2 km/h (1 Bft) 95,74 %
25.09.2023 18:24 21,7 C 20,6 C 14,4 C 61 % 1022,6 hPa 0,0 l/m 2 min 0 min 100 W/m 3,2 km/h (1 Bft) 95,74 %
25.09.2023 18:26 21,7 C 20,6 C 14,4 C 62 % 1022,6 hPa 0,0 l/m 2 min 0 min 93 W/m 3,2 km/h (1 Bft) 95,74 %
25.09.2023 18:28 21,7 C 20,6 C 14,4 C 60 % 1022,5 hPa 0,0 l/m 2 min 0 min 87 W/m 3,2 km/h (1 Bft) 95,74 %
25.09.2023 18:30 21,7 C 20,6 C 14,4 C 61 % 1022,5 hPa 0,0 l/m 2 min 0 min 82 W/m 0,0 km/h (0 Bft) 95,65 %
25.09.2023 18:32 21,7 C 20,0 C 14,4 C 62 % 1022,5 hPa 0,0 l/m 0 min 0 min 62 W/m 3,2 km/h (1 Bft) 93,62 %
25.09.2023 18:34 21,7 C 20,0 C 13,9 C 62 % 1022,5 hPa 0,0 l/m 0 min 0 min 34 W/m 0,0 km/h (0 Bft) 95,74 %
25.09.2023 18:36 21,7 C 19,4 C 13,9 C 62 % 1022,5 hPa 0,0 l/m 0 min 0 min 27 W/m 3,2 km/h (1 Bft) 93,62 %
25.09.2023 18:38 21,6 C 19,4 C 13,9 C 62 % 1022,5 hPa 0,0 l/m 0 min 0 min 26 W/m 3,2 km/h (1 Bft) 91,49 %
25.09.2023 18:40 21,6 C 19,4 C 13,9 C 62 % 1022,5 hPa 0,0 l/m 0 min 0 min 28 W/m 3,2 km/h (1 Bft) 95,74 %
25.09.2023 18:42 21,6 C 19,4 C 13,9 C 62 % 1022,5 hPa 0,0 l/m 0 min 0 min 31 W/m 3,2 km/h (1 Bft) 93,62 %
25.09.2023 18:44 21,5 C 19,4 C 13,9 C 62 % 1022,5 hPa 0,0 l/m 0 min 0 min 29 W/m 3,2 km/h (1 Bft) 95,65 %
25.09.2023 18:46 21,5 C 18,9 C 13,9 C 63 % 1022,5 hPa 0,0 l/m 0 min 0 min 21 W/m 0,0 km/h (0 Bft) 91,49 %
25.09.2023 18:48 21,4 C 18,9 C 13,9 C 62 % 1022,5 hPa 0,0 l/m 0 min 0 min 19 W/m 0,0 km/h (0 Bft) 95,74 %
25.09.2023 18:50 21,4 C 18,9 C 13,9 C 63 % 1022,5 hPa 0,0 l/m 0 min 0 min 18 W/m 0,0 km/h (0 Bft) 95,74 %
25.09.2023 18:52 21,3 C 18,9 C 13,9 C 64 % 1022,5 hPa 0,0 l/m 0 min 0 min 18 W/m 0,0 km/h (0 Bft) 97,87 %
25.09.2023 18:54 21,3 C 18,3 C 13,3 C 66 % 1022,6 hPa 0,0 l/m 0 min 0 min 16 W/m 0,0 km/h (0 Bft) 97,87 %
25.09.2023 18:55 21,2 C 18,3 C 13,3 C 66 % 1022,6 hPa 0,0 l/m 0 min 0 min 16 W/m 0,0 km/h (0 Bft) 100,00 %
25.09.2023 19:00 21,1 C 17,8 C 13,3 C 67 % 1022,6 hPa 0,0 l/m 0 min 0 min 14 W/m 0,0 km/h (0 Bft) 95,00 %
25.09.2023 19:02 20,9 C 17,8 C 13,3 C 68 % 1022,7 hPa 0,0 l/m 0 min 0 min 14 W/m 0,0 km/h (0 Bft) 100,00 %
25.09.2023 19:04 20,8 C 17,2 C 13,3 C 68 % 1022,6 hPa 0,0 l/m 0 min 0 min 12 W/m 0,0 km/h (0 Bft) 100,00 %
25.09.2023 19:06 20,7 C 17,2 C 13,3 C 69 % 1022,6 hPa 0,0 l/m 0 min 0 min 11 W/m 0,0 km/h (0 Bft) 97,83 %
25.09.2023 19:08 20,6 C 17,2 C 12,8 C 69 % 1022,6 hPa 0,0 l/m 0 min 0 min 11 W/m 0,0 km/h (0 Bft) 97,22 %
25.09.2023 19:10 20,4 C 17,2 C 12,8 C 70 % 1022,6 hPa 0,0 l/m 0 min 0 min 10 W/m 0,0 km/h (0 Bft) 100,00 %
25.09.2023 19:12 20,3 C 16,7 C 12,8 C 70 % 1022,6 hPa 0,0 l/m 0 min 0 min 8 W/m 0,0 km/h (0 Bft) 100,00 %
25.09.2023 19:14 20,2 C 16,7 C 12,2 C 70 % 1022,6 hPa 0,0 l/m 0 min 0 min 7 W/m 0,0 km/h (0 Bft) 100,00 %
25.09.2023 19:16 20,1 C 16,7 C 12,2 C 70 % 1022,6 hPa 0,0 l/m 0 min 0 min 6 W/m 0,0 km/h (0 Bft) 97,87 %
25.09.2023 19:18 20,0 C 16,7 C 12,2 C 70 % 1022,6 hPa 0,0 l/m 0 min 0 min 5 W/m 0,0 km/h (0 Bft) 100,00 %
25.09.2023 19:20 19,9 C 16,7 C 12,2 C 71 % 1022,6 hPa 0,0 l/m 0 min 0 min 5 W/m 0,0 km/h (0 Bft) 100,00 %
25.09.2023 19:22 19,8 C 16,7 C 12,2 C 71 % 1022,6 hPa 0,0 l/m 0 min 0 min 4 W/m 0,0 km/h (0 Bft) 100,00 %
25.09.2023 19:24 19,7 C 16,1 C 12,2 C 71 % 1022,7 hPa 0,0 l/m 0 min 0 min 0 W/m 0,0 km/h (0 Bft) 97,87 %
25.09.2023 19:26 19,6 C 16,1 C 11,7 C 71 % 1022,7 hPa 0,0 l/m 0 min 0 min 0 W/m 0,0 km/h (0 Bft) 100,00 %
25.09.2023 19:28 19,4 C 16,1 C 11,7 C 72 % 1022,7 hPa 0,0 l/m 0 min 0 min 0 W/m 0,0 km/h (0 Bft) 100,00 %
25.09.2023 19:30 19,4 C 16,1 C 11,7 C 72 % 1022,7 hPa 0,0 l/m 0 min 0 min 0 W/m 0,0 km/h (0 Bft) 100,00 %
25.09.2023 19:32 19,3 C 16,1 C 11,7 C 73 % 1022,7 hPa 0,0 l/m 0 min 0 min 0 W/m 0,0 km/h (0 Bft) 100,00 %
25.09.2023 19:34 19,2 C 15,6 C 11,7 C 73 % 1022,7 hPa 0,0 l/m 0 min 0 min 0 W/m 0,0 km/h (0 Bft) 100,00 %
25.09.2023 19:36 19,1 C 15,6 C 11,7 C 74 % 1022,7 hPa 0,0 l/m 0 min 0 min 0 W/m 0,0 km/h (0 Bft) 100,00 %
25.09.2023 19:38 19,0 C 15,6 C 11,1 C 74 % 1022,7 hPa 0,0 l/m 0 min 0 min 0 W/m 0,0 km/h (0 Bft) 100,00 %
25.09.2023 19:40 18,9 C 15,6 C 11,1 C 74 % 1022,8 hPa 0,0 l/m 0 min 0 min 0 W/m 0,0 km/h (0 Bft) 100,00 %
25.09.2023 19:42 18,8 C 15,6 C 11,1 C 74 % 1022,8 hPa 0,0 l/m 0 min 0 min 0 W/m 0,0 km/h (0 Bft) 95,74 %
25.09.2023 19:44 18,7 C 15,6 C 11,1 C 75 % 1022,8 hPa 0,0 l/m 0 min 0 min 0 W/m 0,0 km/h (0 Bft) 97,87 %
25.09.2023 19:46 18,6 C 15,6 C 11,1 C 75 % 1022,8 hPa 0,0 l/m 0 min 0 min 0 W/m 0,0 km/h (0 Bft) 98,11 %
25.09.2023 19:48 18,4 C 15,6 C 11,1 C 75 % 1022,8 hPa 0,0 l/m 0 min 0 min 0 W/m 0,0 km/h (0 Bft) 100,00 %
25.09.2023 19:50 18,3 C 15,0 C 11,1 C 75 % 1022,8 hPa 0,0 l/m 0 min 0 min 0 W/m 0,0 km/h (0 Bft) 100,00 %
25.09.2023 19:52 18,3 C 15,0 C 11,1 C 75 % 1022,9 hPa 0,0 l/m 0 min 0 min 0 W/m 0,0 km/h (0 Bft) 100,00 %
25.09.2023 19:54 18,2 C 15,0 C 11,1 C 75 % 1022,9 hPa 0,0 l/m 0 min 0 min 0 W/m 0,0 km/h (0 Bft) 100,00 %
25.09.2023 19:56 18,1 C 15,0 C 11,1 C 76 % 1022,9 hPa 0,0 l/m 0 min 0 min 0 W/m 0,0 km/h (0 Bft) 95,74 %
25.09.2023 19:58 18,0 C 15,0 C 10,6 C 76 % 1022,9 hPa 0,0 l/m 0 min 0 min 0 W/m 0,0 km/h (0 Bft) 100,00 %
25.09.2023 20:00 17,9 C 15,0 C 10,6 C 76 % 1022,9 hPa 0,0 l/m 0 min 0 min 0 W/m 0,0 km/h (0 Bft) 100,00 %
25.09.2023 20:02 17,8 C 15,0 C 10,6 C 77 % 1023,0 hPa 0,0 l/m 0 min 0 min 0 W/m 0,0 km/h (0 Bft) 100,00 %
25.09.2023 20:04 17,8 C 14,4 C 10,6 C 77 % 1023,0 hPa 0,0 l/m 0 min 0 min 0 W/m 0,0 km/h (0 Bft) 100,00 %
25.09.2023 20:06 17,7 C 14,4 C 10,6 C 77 % 1023,0 hPa 0,0 l/m 0 min 0 min 0 W/m 0,0 km/h (0 Bft) 100,00 %
25.09.2023 20:08 17,6 C 14,4 C 10,6 C 77 % 1023,0 hPa 0,0 l/m 0 min 0 min 0 W/m 0,0 km/h (0 Bft) 100,00 %
25.09.2023 20:10 17,6 C 14,4 C 10,6 C 78 % 1023,0 hPa 0,0 l/m 0 min 0 min 0 W/m 0,0 km/h (0 Bft) 97,83 %
25.09.2023 20:12 17,4 C 14,4 C 10,6 C 78 % 1022,9 hPa 0,0 l/m 0 min 0 min 0 W/m 0,0 km/h (0 Bft) 97,87 %
25.09.2023 20:14 17,4 C 14,4 C 10,6 C 79 % 1023,0 hPa 0,0 l/m 0 min 0 min 0 W/m 0,0 km/h (0 Bft) 95,74 %
25.09.2023 20:16 17,3 C 14,4 C 10,6 C 79 % 1023,1 hPa 0,0 l/m 0 min 0 min 0 W/m 0,0 km/h (0 Bft) 95,74 %
25.09.2023 20:18 17,2 C 14,4 C 10,6 C 79 % 1023,1 hPa 0,0 l/m 0 min 0 min 0 W/m 0,0 km/h (0 Bft) 91,43 %
25.09.2023 20:20 17,1 C 14,4 C 10,6 C 79 % 1023,1 hPa 0,0 l/m 0 min 0 min 0 W/m 0,0 km/h (0 Bft) 97,87 %
25.09.2023 20:22 17,1 C 14,4 C 10,6 C 80 % 1023,1 hPa 0,0 l/m 0 min 0 min 0 W/m 0,0 km/h (0 Bft) 95,74 %
25.09.2023 20:24 17,0 C 14,4 C 10,6 C 80 % 1023,1 hPa 0,0 l/m 0 min 0 min 0 W/m 0,0 km/h (0 Bft) 91,49 %
25.09.2023 20:26 16,9 C 13,9 C 10,0 C 80 % 1023,1 hPa 0,0 l/m 0 min 0 min 0 W/m 0,0 km/h (0 Bft) 95,74 %
25.09.2023 20:28 16,9 C 13,9 C 10,0 C 80 % 1023,1 hPa 0,0 l/m 0 min 0 min 0 W/m 0,0 km/h (0 Bft) 93,62 %
25.09.2023 20:30 16,8 C 13,9 C 10,0 C 80 % 1023,2 hPa 0,0 l/m 0 min 0 min 0 W/m 0,0 km/h (0 Bft) 93,62 %
25.09.2023 20:32 16,7 C 13,9 C 10,0 C 80 % 1023,2 hPa 0,0 l/m 0 min 0 min 0 W/m 0,0 km/h (0 Bft) 93,62 %
25.09.2023 20:34 16,6 C 13,9 C 10,0 C 81 % 1023,2 hPa 0,0 l/m 0 min 0 min 0 W/m 0,0 km/h (0 Bft) 91,49 %
25.09.2023 20:36 16,6 C 13,9 C 10,0 C 81 % 1023,2 hPa 0,0 l/m 0 min 0 min 0 W/m 0,0 km/h (0 Bft) 91,30 %
25.09.2023 20:38 16,5 C 13,9 C 10,0 C 81 % 1023,2 hPa 0,0 l/m 0 min 0 min 0 W/m 0,0 km/h (0 Bft) 91,49 %
25.09.2023 20:40 16,4 C 13,9 C 10,0 C 81 % 1023,2 hPa 0,0 l/m 0 min 0 min 0 W/m 0,0 km/h (0 Bft) 93,62 %
25.09.2023 20:42 16,4 C 13,9 C 10,0 C 82 % 1023,2 hPa 0,0 l/m 0 min 0 min 0 W/m 0,0 km/h (0 Bft) 93,62 %
25.09.2023 20:44 16,3 C 13,9 C 10,0 C 82 % 1023,2 hPa 0,0 l/m 0 min 0 min 0 W/m 0,0 km/h (0 Bft) 93,62 %
25.09.2023 20:46 16,3 C 13,9 C 10,0 C 82 % 1023,2 hPa 0,0 l/m 0 min 0 min 0 W/m 0,0 km/h (0 Bft) 93,62 %
25.09.2023 20:48 16,2 C 13,9 C 10,0 C 82 % 1023,2 hPa 0,0 l/m 0 min 0 min 0 W/m 0,0 km/h (0 Bft) 95,74 %
25.09.2023 20:50 16,1 C 13,9 C 10,0 C 82 % 1023,2 hPa 0,0 l/m 0 min 0 min 0 W/m 0,0 km/h (0 Bft) 95,74 %
25.09.2023 20:52 16,1 C 13,9 C 10,0 C 83 % 1023,1 hPa 0,0 l/m 0 min 0 min 0 W/m 0,0 km/h (0 Bft) 93,62 %
25.09.2023 20:54 16,0 C 13,9 C 10,0 C 83 % 1023,1 hPa 0,0 l/m 0 min 0 min 0 W/m 0,0 km/h (0 Bft) 95,74 %
25.09.2023 20:56 15,9 C 13,9 C 10,0 C 83 % 1023,1 hPa 0,0 l/m 0 min 0 min 0 W/m 0,0 km/h (0 Bft) 94,34 %
25.09.2023 20:58 15,8 C 13,3 C 10,0 C 83 % 1023,1 hPa 0,0 l/m 0 min 0 min 0 W/m 0,0 km/h (0 Bft) 95,65 %
25.09.2023 21:00 15,8 C 13,3 C 10,0 C 83 % 1023,1 hPa 0,0 l/m 0 min 0 min 0 W/m 0,0 km/h (0 Bft) 95,74 %
25.09.2023 21:02 15,7 C 13,3 C 10,0 C 83 % 1023,1 hPa 0,0 l/m 0 min 0 min 0 W/m 0,0 km/h (0 Bft) 95,74 %
25.09.2023 21:04 15,7 C 13,3 C 10,0 C 83 % 1023,1 hPa 0,0 l/m 0 min 0 min 0 W/m 0,0 km/h (0 Bft) 97,78 %
25.09.2023 21:06 15,6 C 13,3 C 10,0 C 84 % 1023,1 hPa 0,0 l/m 0 min 0 min 0 W/m 0,0 km/h (0 Bft) 95,74 %
25.09.2023 21:08 15,6 C 13,3 C 9,4 C 84 % 1023,1 hPa 0,0 l/m 0 min 0 min 0 W/m 0,0 km/h (0 Bft) 97,87 %
25.09.2023 21:10 15,6 C 13,3 C 9,4 C 84 % 1023,0 hPa 0,0 l/m 0 min 0 min 0 W/m 0,0 km/h (0 Bft) 100,00 %
25.09.2023 21:12 15,5 C 13,3 C 9,4 C 84 % 1023,0 hPa 0,0 l/m 0 min 0 min 0 W/m 0,0 km/h (0 Bft) 100,00 %
25.09.2023 21:14 15,5 C 13,3 C 9,4 C 84 % 1023,0 hPa 0,0 l/m 0 min 0 min 0 W/m 0,0 km/h (0 Bft) 97,87 %
25.09.2023 21:16 15,4 C 13,3 C 9,4 C 85 % 1023,1 hPa 0,0 l/m 0 min 0 min 0 W/m 0,0 km/h (0 Bft) 97,87 %
25.09.2023 21:18 15,4 C 13,3 C 9,4 C 85 % 1023,1 hPa 0,0 l/m 0 min 0 min 0 W/m 0,0 km/h (0 Bft) 100,00 %
25.09.2023 21:20 15,3 C 13,3 C 9,4 C 85 % 1023,1 hPa 0,0 l/m 0 min 0 min 0 W/m 0,0 km/h (0 Bft) 100,00 %
25.09.2023 21:22 15,3 C 13,3 C 9,4 C 85 % 1023,1 hPa 0,0 l/m 0 min 0 min 0 W/m 0,0 km/h (0 Bft) 100,00 %
25.09.2023 21:24 15,2 C 13,3 C 9,4 C 85 % 1023,1 hPa 0,0 l/m 0 min 0 min 0 W/m 0,0 km/h (0 Bft) 97,87 %
25.09.2023 21:26 15,2 C 13,3 C 9,4 C 85 % 1023,1 hPa 0,0 l/m 0 min 0 min 0 W/m 0,0 km/h (0 Bft) 100,00 %
25.09.2023 21:28 15,2 C 13,3 C 9,4 C 86 % 1023,1 hPa 0,0 l/m 0 min 0 min 0 W/m 0,0 km/h (0 Bft) 97,87 %
25.09.2023 21:30 15,1 C 12,8 C 9,4 C 86 % 1023,1 hPa 0,0 l/m 0 min 0 min 0 W/m 0,0 km/h (0 Bft) 100,00 %
25.09.2023 21:32 15,1 C 12,8 C 9,4 C 86 % 1023,1 hPa 0,0 l/m 0 min 0 min 0 W/m 0,0 km/h (0 Bft) 100,00 %
25.09.2023 21:34 15,1 C 12,8 C 9,4 C 86 % 1023,1 hPa 0,0 l/m 0 min 0 min 0 W/m 0,0 km/h (0 Bft) 100,00 %
25.09.2023 21:36 15,0 C 12,8 C 9,4 C 86 % 1023,1 hPa 0,0 l/m 0 min 0 min 0 W/m 0,0 km/h (0 Bft) 100,00 %
25.09.2023 21:38 14,9 C 12,8 C 9,4 C 86 % 1023,1 hPa 0,0 l/m 0 min 0 min 0 W/m 0,0 km/h (0 Bft) 100,00 %
25.09.2023 21:40 14,9 C 12,8 C 9,4 C 86 % 1023,2 hPa 0,0 l/m 0 min 0 min 0 W/m 0,0 km/h (0 Bft) 97,87 %
25.09.2023 21:42 14,8 C 12,8 C 9,4 C 87 % 1023,1 hPa 0,0 l/m 0 min 0 min 0 W/m 0,0 km/h (0 Bft) 100,00 %
25.09.2023 21:44 14,8 C 12,8 C 9,4 C 87 % 1023,2 hPa 0,0 l/m 0 min 0 min 0 W/m 0,0 km/h (0 Bft) 100,00 %
25.09.2023 21:46 14,7 C 12,8 C 9,4 C 87 % 1023,2 hPa 0,0 l/m 0 min 0 min 0 W/m 0,0 km/h (0 Bft) 97,87 %
25.09.2023 21:48 14,7 C 12,8 C 9,4 C 87 % 1023,2 hPa 0,0 l/m 0 min 0 min 0 W/m 0,0 km/h (0 Bft) 100,00 %
25.09.2023 21:50 14,7 C 12,8 C 9,4 C 87 % 1023,2 hPa 0,0 l/m 0 min 0 min 0 W/m 0,0 km/h (0 Bft) 100,00 %
25.09.2023 21:52 14,6 C 12,8 C 9,4 C 87 % 1023,2 hPa 0,0 l/m 0 min 0 min 0 W/m 0,0 km/h (0 Bft) 100,00 %
25.09.2023 21:54 14,6 C 12,8 C 9,4 C 87 % 1023,2 hPa 0,0 l/m 0 min 0 min 0 W/m 0,0 km/h (0 Bft) 100,00 %
25.09.2023 21:56 14,6 C 12,8 C 9,4 C 88 % 1023,3 hPa 0,0 l/m 0 min 0 min 0 W/m 0,0 km/h (0 Bft) 100,00 %
25.09.2023 21:58 14,5 C 12,8 C 9,4 C 88 % 1023,3 hPa 0,0 l/m 0 min 0 min 0 W/m 0,0 km/h (0 Bft) 97,87 %
25.09.2023 22:00 14,4 C 12,8 C 9,4 C 88 % 1023,3 hPa 0,0 l/m 0 min 0 min 0 W/m 0,0 km/h (0 Bft) 97,87 %
25.09.2023 22:02 14,4 C 12,8 C 9,4 C 88 % 1023,3 hPa 0,0 l/m 0 min 0 min 0 W/m 0,0 km/h (0 Bft) 95,74 %
25.09.2023 22:04 14,4 C 12,8 C 9,4 C 88 % 1023,3 hPa 0,0 l/m 0 min 0 min 0 W/m 0,0 km/h (0 Bft) 98,08 %
25.09.2023 22:06 14,3 C 12,8 C 9,4 C 88 % 1023,2 hPa 0,0 l/m 0 min 0 min 0 W/m 0,0 km/h (0 Bft) 97,87 %
25.09.2023 22:08 14,3 C 12,8 C 8,9 C 88 % 1023,2 hPa 0,0 l/m 0 min 0 min 0 W/m 0,0 km/h (0 Bft) 97,87 %
25.09.2023 22:10 14,3 C 12,8 C 8,9 C 88 % 1023,2 hPa 0,0 l/m 0 min 0 min 0 W/m 0,0 km/h (0 Bft) 95,65 %
25.09.2023 22:12 14,3 C 12,8 C 8,9 C 88 % 1023,2 hPa 0,0 l/m 0 min 0 min 0 W/m 0,0 km/h (0 Bft) 95,74 %
25.09.2023 22:14 14,3 C 12,8 C 8,9 C 88 % 1023,1 hPa 0,0 l/m 0 min 0 min 0 W/m 0,0 km/h (0 Bft) 95,74 %
25.09.2023 22:16 14,3 C 12,8 C 8,9 C 89 % 1023,1 hPa 0,0 l/m 0 min 0 min 0 W/m 0,0 km/h (0 Bft) 95,74 %
25.09.2023 22:18 14,3 C 12,8 C 8,9 C 89 % 1023,1 hPa 0,0 l/m 0 min 0 min 0 W/m 0,0 km/h (0 Bft) 97,87 %
25.09.2023 22:20 14,3 C 12,2 C 8,9 C 89 % 1023,1 hPa 0,0 l/m 0 min 0 min 0 W/m 0,0 km/h (0 Bft) 95,74 %
25.09.2023 22:22 14,2 C 12,2 C 8,9 C 89 % 1023,1 hPa 0,0 l/m 0 min 0 min 0 W/m 0,0 km/h (0 Bft) 93,62 %
25.09.2023 22:24 14,2 C 12,2 C 8,9 C 89 % 1023,1 hPa 0,0 l/m 0 min 0 min 0 W/m 0,0 km/h (0 Bft) 95,74 %
25.09.2023 22:26 14,1 C 12,2 C 8,9 C 89 % 1023,1 hPa 0,0 l/m 0 min 0 min 0 W/m 0,0 km/h (0 Bft) 95,74 %
25.09.2023 22:28 14,1 C 12,2 C 8,9 C 89 % 1023,0 hPa 0,0 l/m 0 min 0 min 0 W/m 0,0 km/h (0 Bft) 95,74 %
25.09.2023 22:30 14,1 C 12,2 C 8,9 C 89 % 1023,1 hPa 0,0 l/m 0 min 0 min 0 W/m 0,0 km/h (0 Bft) 97,87 %
25.09.2023 22:32 14,1 C 12,2 C 8,9 C 89 % 1023,1 hPa 0,0 l/m 0 min 0 min 0 W/m 0,0 km/h (0 Bft) 95,65 %
25.09.2023 22:34 14,0 C 12,2 C 8,9 C 89 % 1023,1 hPa 0,0 l/m 0 min 0 min 0 W/m 0,0 km/h (0 Bft) 97,87 %
25.09.2023 22:36 13,9 C 12,2 C 8,9 C 89 % 1023,1 hPa 0,0 l/m 0 min 0 min 0 W/m 0,0 km/h (0 Bft) 97,87 %
25.09.2023 22:38 13,9 C 12,2 C 8,9 C 90 % 1023,1 hPa 0,0 l/m 0 min 0 min 0 W/m 0,0 km/h (0 Bft) 97,87 %
25.09.2023 22:40 13,9 C 12,2 C 8,9 C 90 % 1023,1 hPa 0,0 l/m 0 min 0 min 0 W/m 0,0 km/h (0 Bft) 97,87 %
25.09.2023 22:42 13,9 C 12,2 C 8,9 C 90 % 1023,1 hPa 0,0 l/m 0 min 0 min 0 W/m 0,0 km/h (0 Bft) 95,74 %
25.09.2023 22:44 13,8 C 12,2 C 8,9 C 90 % 1023,1 hPa 0,0 l/m 0 min 0 min 0 W/m 0,0 km/h (0 Bft) 97,87 %
25.09.2023 22:46 13,8 C 12,2 C 8,9 C 90 % 1023,1 hPa 0,0 l/m 0 min 0 min 0 W/m 0,0 km/h (0 Bft) 97,87 %
25.09.2023 22:48 13,8 C 12,2 C 8,9 C 90 % 1023,0 hPa 0,0 l/m 0 min 0 min 0 W/m 0,0 km/h (0 Bft) 97,14 %
25.09.2023 22:50 13,7 C 12,2 C 8,9 C 90 % 1023,0 hPa 0,0 l/m 0 min 0 min 0 W/m 0,0 km/h (0 Bft) 97,87 %
25.09.2023 22:52 13,7 C 12,2 C 8,9 C 90 % 1023,0 hPa 0,0 l/m 0 min 0 min 0 W/m 0,0 km/h (0 Bft) 95,74 %
25.09.2023 22:54 13,7 C 12,2 C 8,9 C 90 % 1023,0 hPa 0,0 l/m 0 min 0 min 0 W/m 0,0 km/h (0 Bft) 97,87 %
25.09.2023 22:56 13,7 C 12,2 C 8,9 C 90 % 1023,0 hPa 0,0 l/m 0 min 0 min 0 W/m 0,0 km/h (0 Bft) 100,00 %
25.09.2023 22:58 13,7 C 12,2 C 8,9 C 90 % 1023,0 hPa 0,0 l/m 0 min 0 min 0 W/m 0,0 km/h (0 Bft) 100,00 %
25.09.2023 23:00 13,6 C 12,2 C 8,9 C 90 % 1023,0 hPa 0,0 l/m 0 min 0 min 0 W/m 0,0 km/h (0 Bft) 100,00 %
25.09.2023 23:02 13,6 C 12,2 C 8,9 C 90 % 1023,0 hPa 0,0 l/m 0 min 0 min 0 W/m 0,0 km/h (0 Bft) 100,00 %
25.09.2023 23:04 13,6 C 12,2 C 8,9 C 90 % 1023,0 hPa 0,0 l/m 0 min 0 min 0 W/m 0,0 km/h (0 Bft) 97,92 %
25.09.2023 23:06 13,6 C 12,2 C 8,9 C 91 % 1023,0 hPa 0,0 l/m 0 min 0 min 0 W/m 0,0 km/h (0 Bft) 100,00 %
25.09.2023 23:08 13,6 C 12,2 C 8,9 C 91 % 1023,0 hPa 0,0 l/m 0 min 0 min 0 W/m 0,0 km/h (0 Bft) 100,00 %
25.09.2023 23:10 13,6 C 12,2 C 8,9 C 90 % 1023,0 hPa 0,0 l/m 0 min 0 min 0 W/m 0,0 km/h (0 Bft) 100,00 %
25.09.2023 23:12 13,5 C 12,2 C 8,9 C 91 % 1022,9 hPa 0,0 l/m 0 min 0 min 0 W/m 0,0 km/h (0 Bft) 100,00 %
25.09.2023 23:14 13,5 C 12,2 C 8,9 C 91 % 1022,9 hPa 0,0 l/m 0 min 0 min 0 W/m 0,0 km/h (0 Bft) 100,00 %
25.09.2023 23:16 13,4 C 12,2 C 8,9 C 91 % 1022,9 hPa 0,0 l/m 0 min 0 min 0 W/m 0,0 km/h (0 Bft) 100,00 %
25.09.2023 23:18 13,4 C 12,2 C 8,9 C 91 % 1023,0 hPa 0,0 l/m 0 min 0 min 0 W/m 0,0 km/h (0 Bft) 100,00 %
25.09.2023 23:20 13,4 C 12,2 C 8,9 C 91 % 1023,0 hPa 0,0 l/m 0 min 0 min 0 W/m 0,0 km/h (0 Bft) 97,87 %
25.09.2023 23:22 13,4 C 12,2 C 8,9 C 91 % 1023,0 hPa 0,0 l/m 0 min 0 min 0 W/m 0,0 km/h (0 Bft) 100,00 %
25.09.2023 23:24 13,4 C 12,2 C 8,9 C 91 % 1023,0 hPa 0,0 l/m 0 min 0 min 0 W/m 0,0 km/h (0 Bft) 100,00 %
25.09.2023 23:26 13,4 C 12,2 C 8,9 C 91 % 1023,0 hPa 0,0 l/m 0 min 0 min 0 W/m 0,0 km/h (0 Bft) 100,00 %
25.09.2023 23:28 13,3 C 12,2 C 8,9 C 91 % 1023,0 hPa 0,0 l/m 0 min 0 min 0 W/m 0,0 km/h (0 Bft) 100,00 %
25.09.2023 23:30 13,3 C 12,2 C 8,9 C 91 % 1023,0 hPa 0,0 l/m 0 min 0 min 0 W/m 0,0 km/h (0 Bft) 100,00 %
25.09.2023 23:32 13,3 C 12,2 C 8,9 C 91 % 1022,9 hPa 0,0 l/m 0 min 0 min 0 W/m 0,0 km/h (0 Bft) 97,87 %
25.09.2023 23:34 13,3 C 12,2 C 8,9 C 91 % 1023,0 hPa 0,0 l/m 0 min 0 min 0 W/m 0,0 km/h (0 Bft) 100,00 %
25.09.2023 23:36 13,3 C 12,2 C 8,9 C 91 % 1022,9 hPa 0,0 l/m 0 min 0 min 0 W/m 0,0 km/h (0 Bft) 97,87 %
25.09.2023 23:38 13,3 C 12,2 C 8,9 C 91 % 1023,0 hPa 0,0 l/m 0 min 0 min 0 W/m 0,0 km/h (0 Bft) 97,87 %
25.09.2023 23:40 13,2 C 12,2 C 8,9 C 91 % 1022,9 hPa 0,0 l/m 0 min 0 min 0 W/m 0,0 km/h (0 Bft) 97,87 %
25.09.2023 23:42 13,2 C 12,2 C 8,9 C 91 % 1023,0 hPa 0,0 l/m 0 min 0 min 0 W/m 0,0 km/h (0 Bft) 95,74 %
25.09.2023 23:44 13,2 C 12,2 C 8,9 C 91 % 1022,9 hPa 0,0 l/m 0 min 0 min 0 W/m 0,0 km/h (0 Bft) 97,87 %
25.09.2023 23:46 13,2 C 12,2 C 8,9 C 92 % 1022,9 hPa 0,0 l/m 0 min 0 min 0 W/m 0,0 km/h (0 Bft) 95,92 %
25.09.2023 23:48 13,2 C 12,2 C 8,9 C 92 % 1022,9 hPa 0,0 l/m 0 min 0 min 0 W/m 0,0 km/h (0 Bft) 97,83 %
25.09.2023 23:50 13,2 C 12,2 C 8,9 C 92 % 1022,9 hPa 0,0 l/m 0 min 0 min 0 W/m 0,0 km/h (0 Bft) 95,74 %
25.09.2023 23:52 13,2 C 12,2 C 8,9 C 92 % 1022,9 hPa 0,0 l/m 0 min 0 min 0 W/m 0,0 km/h (0 Bft) 95,74 %
25.09.2023 23:54 13,1 C 11,7 C 8,9 C 92 % 1022,9 hPa 0,0 l/m 0 min 0 min 0 W/m 0,0 km/h (0 Bft) 95,74 %
25.09.2023 23:56 13,1 C 11,7 C 8,3 C 92 % 1022,9 hPa 0,0 l/m 0 min 0 min 0 W/m 0,0 km/h (0 Bft) 95,74 %
25.09.2023 23:58 13,1 C 11,7 C 8,3 C 92 % 1022,8 hPa 0,0 l/m 0 min 0 min 0 W/m 0,0 km/h (0 Bft) 95,74 %
_ Min-Zeit 05:18 04:34 05:12 17:14 17:02 - - - - 00:00 10:34
Minimum _ 11,4 C 10,6 C 7,2 C 54 % 1022,5 hPa - - - - 0,0 km/h (0 Bft) 54,55 %
_ Max-Zeit 17:50 17:38 11:50 23:46 10:10 00:00 12:08 00:00 14:22 10:58 00:02
Maximum _ 22,3 C 26,1 C 16,7 C 92 % 1023,7 hPa 0,0 l/m 4 min 0 min 720 W/m 25,7 km/h
S-SO (4 Bft)
100,00 %
Durchschnitt _ 16,0 C 15,3 C 11,0 C 78 % 1023,0 hPa #0,0 l/m #5:40 h #0 min. 244 W/m 6,8 km/h (2 Bft) 97,39 %
© 2023 W. Hausmann